<?xml version="1.0" encoding="UTF-8" standalone="no" ?>
<gpx xmlns="http://www.topografix.com/GPX/1/1" xmlns:xsi="http://www.w3.org/2001/XMLSchema-instance" xsi:schemaLocation="http://www.topografix.com/GPX/1/1 http://www.topografix.com/GPX/1/1/gpx.xsd" version="1.1" creator="VisuGPX - https://www.visugpx.com">
  <metadata>
    <name>THISE - Château de Beaupré</name>
    <desc><![CDATA[THISE - Château de Beaupré]]></desc>
  </metadata>
  <trk>
    <name><![CDATA[THISE - Château de Beaupré_1]]></name>
    <trkseg>
      <trkpt lat="47.284" lon="6.08104">
        <ele>269.4</ele>
        <time>2012-04-16T12:12:56Z</time>
      </trkpt>
      <trkpt lat="47.284" lon="6.08104">
        <ele>351.1</ele>
        <time>2012-04-16T12:12:57Z</time>
      </trkpt>
      <trkpt lat="47.28407" lon="6.08107">
        <ele>349.6</ele>
        <time>2012-04-16T12:12:58Z</time>
      </trkpt>
      <trkpt lat="47.28407" lon="6.08107">
        <ele>269.6</ele>
        <time>2012-04-16T12:13:10Z</time>
      </trkpt>
      <trkpt lat="47.28407" lon="6.08107">
        <ele>269.6</ele>
        <time>2012-04-16T12:16:37Z</time>
      </trkpt>
      <trkpt lat="47.28418" lon="6.08116">
        <ele>327.8</ele>
        <time>2012-04-16T12:16:40Z</time>
      </trkpt>
      <trkpt lat="47.28424" lon="6.08118">
        <ele>327.7</ele>
        <time>2012-04-16T12:16:46Z</time>
      </trkpt>
      <trkpt lat="47.28431" lon="6.08124">
        <ele>325.7</ele>
        <time>2012-04-16T12:16:52Z</time>
      </trkpt>
      <trkpt lat="47.28438" lon="6.08119">
        <ele>324.6</ele>
        <time>2012-04-16T12:16:58Z</time>
      </trkpt>
      <trkpt lat="47.28437" lon="6.08129">
        <ele>322.7</ele>
        <time>2012-04-16T12:17:06Z</time>
      </trkpt>
      <trkpt lat="47.28441" lon="6.08138">
        <ele>321.8</ele>
        <time>2012-04-16T12:17:12Z</time>
      </trkpt>
      <trkpt lat="47.28442" lon="6.08149">
        <ele>321.5</ele>
        <time>2012-04-16T12:17:22Z</time>
      </trkpt>
      <trkpt lat="47.28442" lon="6.08149">
        <ele>273.3</ele>
        <time>2012-04-16T12:17:34Z</time>
      </trkpt>
      <trkpt lat="47.28442" lon="6.08149">
        <ele>273.3</ele>
        <time>2012-04-16T12:17:51Z</time>
      </trkpt>
      <trkpt lat="47.28437" lon="6.08167">
        <ele>320.8</ele>
        <time>2012-04-16T12:17:54Z</time>
      </trkpt>
      <trkpt lat="47.28433" lon="6.08179">
        <ele>321.4</ele>
        <time>2012-04-16T12:17:58Z</time>
      </trkpt>
      <trkpt lat="47.2843" lon="6.08188">
        <ele>323.9</ele>
        <time>2012-04-16T12:18:05Z</time>
      </trkpt>
      <trkpt lat="47.2843" lon="6.08188">
        <ele>275.6</ele>
        <time>2012-04-16T12:18:16Z</time>
      </trkpt>
      <trkpt lat="47.2843" lon="6.08188">
        <ele>275.6</ele>
        <time>2012-04-16T12:18:18Z</time>
      </trkpt>
      <trkpt lat="47.2843" lon="6.08188">
        <ele>275.6</ele>
        <time>2012-04-16T12:18:29Z</time>
      </trkpt>
      <trkpt lat="47.2843" lon="6.08188">
        <ele>275.6</ele>
        <time>2012-04-16T12:18:35Z</time>
      </trkpt>
      <trkpt lat="47.28419" lon="6.08213">
        <ele>316</ele>
        <time>2012-04-16T12:18:46Z</time>
      </trkpt>
      <trkpt lat="47.28413" lon="6.0822">
        <ele>315.9</ele>
        <time>2012-04-16T12:18:51Z</time>
      </trkpt>
      <trkpt lat="47.2841" lon="6.0823">
        <ele>316.4</ele>
        <time>2012-04-16T12:18:56Z</time>
      </trkpt>
      <trkpt lat="47.2841" lon="6.0823">
        <ele>277.1</ele>
        <time>2012-04-16T12:19:07Z</time>
      </trkpt>
      <trkpt lat="47.2841" lon="6.0823">
        <ele>277.1</ele>
        <time>2012-04-16T12:19:16Z</time>
      </trkpt>
      <trkpt lat="47.28402" lon="6.08248">
        <ele>314.3</ele>
        <time>2012-04-16T12:19:23Z</time>
      </trkpt>
      <trkpt lat="47.28403" lon="6.08257">
        <ele>314.5</ele>
        <time>2012-04-16T12:19:26Z</time>
      </trkpt>
      <trkpt lat="47.284" lon="6.08267">
        <ele>316.1</ele>
        <time>2012-04-16T12:19:30Z</time>
      </trkpt>
      <trkpt lat="47.284" lon="6.08277">
        <ele>316.3</ele>
        <time>2012-04-16T12:19:36Z</time>
      </trkpt>
      <trkpt lat="47.28395" lon="6.08285">
        <ele>316.8</ele>
        <time>2012-04-16T12:19:43Z</time>
      </trkpt>
      <trkpt lat="47.28395" lon="6.08295">
        <ele>320.8</ele>
        <time>2012-04-16T12:19:46Z</time>
      </trkpt>
      <trkpt lat="47.28394" lon="6.08305">
        <ele>322.4</ele>
        <time>2012-04-16T12:19:51Z</time>
      </trkpt>
      <trkpt lat="47.28392" lon="6.08315">
        <ele>323.2</ele>
        <time>2012-04-16T12:19:57Z</time>
      </trkpt>
      <trkpt lat="47.28392" lon="6.08315">
        <ele>280.7</ele>
        <time>2012-04-16T12:20:08Z</time>
      </trkpt>
      <trkpt lat="47.28392" lon="6.08315">
        <ele>280.7</ele>
        <time>2012-04-16T12:20:16Z</time>
      </trkpt>
      <trkpt lat="47.28389" lon="6.08336">
        <ele>321.3</ele>
        <time>2012-04-16T12:20:25Z</time>
      </trkpt>
      <trkpt lat="47.28391" lon="6.08347">
        <ele>319.8</ele>
        <time>2012-04-16T12:20:28Z</time>
      </trkpt>
      <trkpt lat="47.28389" lon="6.0836">
        <ele>319.8</ele>
        <time>2012-04-16T12:20:32Z</time>
      </trkpt>
      <trkpt lat="47.28389" lon="6.08372">
        <ele>319.4</ele>
        <time>2012-04-16T12:20:37Z</time>
      </trkpt>
      <trkpt lat="47.28388" lon="6.08382">
        <ele>319.7</ele>
        <time>2012-04-16T12:20:42Z</time>
      </trkpt>
      <trkpt lat="47.2839" lon="6.08392">
        <ele>322.3</ele>
        <time>2012-04-16T12:20:49Z</time>
      </trkpt>
      <trkpt lat="47.2839" lon="6.08403">
        <ele>322.3</ele>
        <time>2012-04-16T12:20:55Z</time>
      </trkpt>
      <trkpt lat="47.28389" lon="6.08413">
        <ele>323.4</ele>
        <time>2012-04-16T12:21:01Z</time>
      </trkpt>
      <trkpt lat="47.28384" lon="6.08419">
        <ele>324.3</ele>
        <time>2012-04-16T12:21:09Z</time>
      </trkpt>
      <trkpt lat="47.28387" lon="6.08429">
        <ele>325.4</ele>
        <time>2012-04-16T12:21:17Z</time>
      </trkpt>
      <trkpt lat="47.28389" lon="6.08438">
        <ele>325.2</ele>
        <time>2012-04-16T12:21:24Z</time>
      </trkpt>
      <trkpt lat="47.28389" lon="6.0845">
        <ele>325.8</ele>
        <time>2012-04-16T12:21:33Z</time>
      </trkpt>
      <trkpt lat="47.28388" lon="6.08459">
        <ele>327</ele>
        <time>2012-04-16T12:21:37Z</time>
      </trkpt>
      <trkpt lat="47.28384" lon="6.08467">
        <ele>329.7</ele>
        <time>2012-04-16T12:21:44Z</time>
      </trkpt>
      <trkpt lat="47.28386" lon="6.08479">
        <ele>332</ele>
        <time>2012-04-16T12:21:48Z</time>
      </trkpt>
      <trkpt lat="47.28384" lon="6.08488">
        <ele>332.5</ele>
        <time>2012-04-16T12:21:58Z</time>
      </trkpt>
      <trkpt lat="47.28387" lon="6.08497">
        <ele>333.3</ele>
        <time>2012-04-16T12:22:04Z</time>
      </trkpt>
      <trkpt lat="47.28386" lon="6.08506">
        <ele>334.9</ele>
        <time>2012-04-16T12:22:12Z</time>
      </trkpt>
      <trkpt lat="47.28389" lon="6.08515">
        <ele>335.8</ele>
        <time>2012-04-16T12:22:17Z</time>
      </trkpt>
      <trkpt lat="47.28391" lon="6.08524">
        <ele>336.6</ele>
        <time>2012-04-16T12:22:24Z</time>
      </trkpt>
      <trkpt lat="47.28393" lon="6.08534">
        <ele>336.5</ele>
        <time>2012-04-16T12:22:33Z</time>
      </trkpt>
      <trkpt lat="47.28399" lon="6.08542">
        <ele>336.9</ele>
        <time>2012-04-16T12:22:40Z</time>
      </trkpt>
      <trkpt lat="47.28404" lon="6.08548">
        <ele>339.2</ele>
        <time>2012-04-16T12:22:46Z</time>
      </trkpt>
      <trkpt lat="47.28403" lon="6.08558">
        <ele>338.8</ele>
        <time>2012-04-16T12:22:54Z</time>
      </trkpt>
      <trkpt lat="47.28407" lon="6.08565">
        <ele>340.3</ele>
        <time>2012-04-16T12:23:01Z</time>
      </trkpt>
      <trkpt lat="47.2841" lon="6.08574">
        <ele>341.9</ele>
        <time>2012-04-16T12:23:10Z</time>
      </trkpt>
      <trkpt lat="47.28412" lon="6.08583">
        <ele>342.6</ele>
        <time>2012-04-16T12:23:18Z</time>
      </trkpt>
      <trkpt lat="47.28418" lon="6.08588">
        <ele>342.2</ele>
        <time>2012-04-16T12:23:26Z</time>
      </trkpt>
      <trkpt lat="47.28422" lon="6.08598">
        <ele>342.9</ele>
        <time>2012-04-16T12:23:35Z</time>
      </trkpt>
      <trkpt lat="47.28424" lon="6.08608">
        <ele>341.8</ele>
        <time>2012-04-16T12:23:41Z</time>
      </trkpt>
      <trkpt lat="47.28424" lon="6.08618">
        <ele>341</ele>
        <time>2012-04-16T12:23:51Z</time>
      </trkpt>
      <trkpt lat="47.28425" lon="6.08628">
        <ele>340.8</ele>
        <time>2012-04-16T12:23:55Z</time>
      </trkpt>
      <trkpt lat="47.28427" lon="6.08638">
        <ele>341.2</ele>
        <time>2012-04-16T12:24:02Z</time>
      </trkpt>
      <trkpt lat="47.28427" lon="6.08638">
        <ele>304.8</ele>
        <time>2012-04-16T12:24:13Z</time>
      </trkpt>
      <trkpt lat="47.28427" lon="6.08638">
        <ele>304.8</ele>
        <time>2012-04-16T12:24:16Z</time>
      </trkpt>
      <trkpt lat="47.28434" lon="6.08651">
        <ele>342.8</ele>
        <time>2012-04-16T12:24:21Z</time>
      </trkpt>
      <trkpt lat="47.28438" lon="6.08658">
        <ele>343.5</ele>
        <time>2012-04-16T12:24:30Z</time>
      </trkpt>
      <trkpt lat="47.2844" lon="6.08668">
        <ele>345.4</ele>
        <time>2012-04-16T12:24:40Z</time>
      </trkpt>
      <trkpt lat="47.28448" lon="6.08669">
        <ele>345.5</ele>
        <time>2012-04-16T12:24:48Z</time>
      </trkpt>
      <trkpt lat="47.28455" lon="6.08668">
        <ele>345.1</ele>
        <time>2012-04-16T12:24:57Z</time>
      </trkpt>
      <trkpt lat="47.28456" lon="6.08678">
        <ele>347.6</ele>
        <time>2012-04-16T12:25:03Z</time>
      </trkpt>
      <trkpt lat="47.2846" lon="6.08686">
        <ele>347.1</ele>
        <time>2012-04-16T12:25:11Z</time>
      </trkpt>
      <trkpt lat="47.28463" lon="6.08694">
        <ele>349.9</ele>
        <time>2012-04-16T12:25:17Z</time>
      </trkpt>
      <trkpt lat="47.28469" lon="6.08698">
        <ele>351.2</ele>
        <time>2012-04-16T12:25:27Z</time>
      </trkpt>
      <trkpt lat="47.28475" lon="6.08703">
        <ele>350.7</ele>
        <time>2012-04-16T12:25:33Z</time>
      </trkpt>
      <trkpt lat="47.28481" lon="6.08707">
        <ele>352.7</ele>
        <time>2012-04-16T12:25:40Z</time>
      </trkpt>
      <trkpt lat="47.28488" lon="6.08708">
        <ele>352.9</ele>
        <time>2012-04-16T12:25:47Z</time>
      </trkpt>
      <trkpt lat="47.28494" lon="6.0871">
        <ele>354</ele>
        <time>2012-04-16T12:25:54Z</time>
      </trkpt>
      <trkpt lat="47.28499" lon="6.08719">
        <ele>353.6</ele>
        <time>2012-04-16T12:25:59Z</time>
      </trkpt>
      <trkpt lat="47.28506" lon="6.08723">
        <ele>356.1</ele>
        <time>2012-04-16T12:26:06Z</time>
      </trkpt>
      <trkpt lat="47.28513" lon="6.08725">
        <ele>355.5</ele>
        <time>2012-04-16T12:26:13Z</time>
      </trkpt>
      <trkpt lat="47.28513" lon="6.08725">
        <ele>313.1</ele>
        <time>2012-04-16T12:26:24Z</time>
      </trkpt>
      <trkpt lat="47.28513" lon="6.08725">
        <ele>313.1</ele>
        <time>2012-04-16T12:26:26Z</time>
      </trkpt>
      <trkpt lat="47.28526" lon="6.08717">
        <ele>354.6</ele>
        <time>2012-04-16T12:26:30Z</time>
      </trkpt>
      <trkpt lat="47.28526" lon="6.08717">
        <ele>313</ele>
        <time>2012-04-16T12:26:41Z</time>
      </trkpt>
      <trkpt lat="47.28526" lon="6.08717">
        <ele>313</ele>
        <time>2012-04-16T12:26:49Z</time>
      </trkpt>
      <trkpt lat="47.28526" lon="6.08717">
        <ele>313</ele>
        <time>2012-04-16T12:27:00Z</time>
      </trkpt>
      <trkpt lat="47.28526" lon="6.08717">
        <ele>313</ele>
        <time>2012-04-16T12:27:30Z</time>
      </trkpt>
      <trkpt lat="47.28541" lon="6.087">
        <ele>355.5</ele>
        <time>2012-04-16T12:27:33Z</time>
      </trkpt>
      <trkpt lat="47.28547" lon="6.08696">
        <ele>353.5</ele>
        <time>2012-04-16T12:27:38Z</time>
      </trkpt>
      <trkpt lat="47.28552" lon="6.0869">
        <ele>353.7</ele>
        <time>2012-04-16T12:27:44Z</time>
      </trkpt>
      <trkpt lat="47.28556" lon="6.08682">
        <ele>353.4</ele>
        <time>2012-04-16T12:27:49Z</time>
      </trkpt>
      <trkpt lat="47.28561" lon="6.08674">
        <ele>354.4</ele>
        <time>2012-04-16T12:27:55Z</time>
      </trkpt>
      <trkpt lat="47.28567" lon="6.08668">
        <ele>356.2</ele>
        <time>2012-04-16T12:28:04Z</time>
      </trkpt>
      <trkpt lat="47.28571" lon="6.0866">
        <ele>357.4</ele>
        <time>2012-04-16T12:28:08Z</time>
      </trkpt>
      <trkpt lat="47.28576" lon="6.08653">
        <ele>358.1</ele>
        <time>2012-04-16T12:28:13Z</time>
      </trkpt>
      <trkpt lat="47.28581" lon="6.08646">
        <ele>357.1</ele>
        <time>2012-04-16T12:28:18Z</time>
      </trkpt>
      <trkpt lat="47.28587" lon="6.08642">
        <ele>357.5</ele>
        <time>2012-04-16T12:28:23Z</time>
      </trkpt>
      <trkpt lat="47.28592" lon="6.08636">
        <ele>359.3</ele>
        <time>2012-04-16T12:28:32Z</time>
      </trkpt>
      <trkpt lat="47.28595" lon="6.08627">
        <ele>361.4</ele>
        <time>2012-04-16T12:28:40Z</time>
      </trkpt>
      <trkpt lat="47.286" lon="6.08621">
        <ele>361.9</ele>
        <time>2012-04-16T12:28:47Z</time>
      </trkpt>
      <trkpt lat="47.28605" lon="6.08613">
        <ele>360.8</ele>
        <time>2012-04-16T12:28:56Z</time>
      </trkpt>
      <trkpt lat="47.28611" lon="6.08607">
        <ele>362.3</ele>
        <time>2012-04-16T12:29:04Z</time>
      </trkpt>
      <trkpt lat="47.28608" lon="6.08598">
        <ele>362.3</ele>
        <time>2012-04-16T12:29:15Z</time>
      </trkpt>
      <trkpt lat="47.28602" lon="6.08596">
        <ele>365.9</ele>
        <time>2012-04-16T12:29:20Z</time>
      </trkpt>
      <trkpt lat="47.28596" lon="6.08592">
        <ele>368.5</ele>
        <time>2012-04-16T12:29:25Z</time>
      </trkpt>
      <trkpt lat="47.28591" lon="6.08584">
        <ele>368.7</ele>
        <time>2012-04-16T12:29:33Z</time>
      </trkpt>
      <trkpt lat="47.28584" lon="6.08579">
        <ele>371.2</ele>
        <time>2012-04-16T12:29:41Z</time>
      </trkpt>
      <trkpt lat="47.28579" lon="6.08573">
        <ele>369.9</ele>
        <time>2012-04-16T12:29:48Z</time>
      </trkpt>
      <trkpt lat="47.28575" lon="6.08565">
        <ele>369.8</ele>
        <time>2012-04-16T12:29:55Z</time>
      </trkpt>
      <trkpt lat="47.28569" lon="6.08559">
        <ele>370.3</ele>
        <time>2012-04-16T12:30:02Z</time>
      </trkpt>
      <trkpt lat="47.28563" lon="6.08552">
        <ele>370</ele>
        <time>2012-04-16T12:30:08Z</time>
      </trkpt>
      <trkpt lat="47.28557" lon="6.08546">
        <ele>369.6</ele>
        <time>2012-04-16T12:30:15Z</time>
      </trkpt>
      <trkpt lat="47.28551" lon="6.08541">
        <ele>371.8</ele>
        <time>2012-04-16T12:30:21Z</time>
      </trkpt>
      <trkpt lat="47.28551" lon="6.08541">
        <ele>320.6</ele>
        <time>2012-04-16T12:30:32Z</time>
      </trkpt>
      <trkpt lat="47.28551" lon="6.08541">
        <ele>320.6</ele>
        <time>2012-04-16T12:30:33Z</time>
      </trkpt>
      <trkpt lat="47.28541" lon="6.08525">
        <ele>370.4</ele>
        <time>2012-04-16T12:30:39Z</time>
      </trkpt>
      <trkpt lat="47.28538" lon="6.08516">
        <ele>371.3</ele>
        <time>2012-04-16T12:30:46Z</time>
      </trkpt>
      <trkpt lat="47.28532" lon="6.0851">
        <ele>370.7</ele>
        <time>2012-04-16T12:30:53Z</time>
      </trkpt>
      <trkpt lat="47.28527" lon="6.08501">
        <ele>370.9</ele>
        <time>2012-04-16T12:31:00Z</time>
      </trkpt>
      <trkpt lat="47.28522" lon="6.08495">
        <ele>371.1</ele>
        <time>2012-04-16T12:31:08Z</time>
      </trkpt>
      <trkpt lat="47.28515" lon="6.08494">
        <ele>370.9</ele>
        <time>2012-04-16T12:31:14Z</time>
      </trkpt>
      <trkpt lat="47.28508" lon="6.08489">
        <ele>370.4</ele>
        <time>2012-04-16T12:31:20Z</time>
      </trkpt>
      <trkpt lat="47.28504" lon="6.08482">
        <ele>370.3</ele>
        <time>2012-04-16T12:31:27Z</time>
      </trkpt>
      <trkpt lat="47.28503" lon="6.08471">
        <ele>370</ele>
        <time>2012-04-16T12:31:37Z</time>
      </trkpt>
      <trkpt lat="47.28498" lon="6.08462">
        <ele>368.8</ele>
        <time>2012-04-16T12:31:45Z</time>
      </trkpt>
      <trkpt lat="47.28493" lon="6.08454">
        <ele>370.8</ele>
        <time>2012-04-16T12:31:50Z</time>
      </trkpt>
      <trkpt lat="47.28486" lon="6.08456">
        <ele>372.8</ele>
        <time>2012-04-16T12:31:59Z</time>
      </trkpt>
      <trkpt lat="47.28479" lon="6.08456">
        <ele>372.1</ele>
        <time>2012-04-16T12:32:05Z</time>
      </trkpt>
      <trkpt lat="47.28473" lon="6.08455">
        <ele>370.2</ele>
        <time>2012-04-16T12:32:12Z</time>
      </trkpt>
      <trkpt lat="47.28473" lon="6.08455">
        <ele>315.7</ele>
        <time>2012-04-16T12:32:23Z</time>
      </trkpt>
      <trkpt lat="47.28473" lon="6.08455">
        <ele>315.7</ele>
        <time>2012-04-16T12:32:42Z</time>
      </trkpt>
      <trkpt lat="47.28471" lon="6.08434">
        <ele>368.2</ele>
        <time>2012-04-16T12:32:48Z</time>
      </trkpt>
      <trkpt lat="47.28469" lon="6.08425">
        <ele>368.7</ele>
        <time>2012-04-16T12:32:54Z</time>
      </trkpt>
      <trkpt lat="47.28465" lon="6.08417">
        <ele>370</ele>
        <time>2012-04-16T12:32:58Z</time>
      </trkpt>
      <trkpt lat="47.28465" lon="6.08405">
        <ele>369.7</ele>
        <time>2012-04-16T12:33:04Z</time>
      </trkpt>
      <trkpt lat="47.28466" lon="6.08396">
        <ele>369.4</ele>
        <time>2012-04-16T12:33:11Z</time>
      </trkpt>
      <trkpt lat="47.28462" lon="6.08387">
        <ele>367.7</ele>
        <time>2012-04-16T12:33:15Z</time>
      </trkpt>
      <trkpt lat="47.2846" lon="6.08377">
        <ele>365.7</ele>
        <time>2012-04-16T12:33:23Z</time>
      </trkpt>
      <trkpt lat="47.28457" lon="6.08369">
        <ele>363.8</ele>
        <time>2012-04-16T12:33:30Z</time>
      </trkpt>
      <trkpt lat="47.2846" lon="6.0836">
        <ele>363.3</ele>
        <time>2012-04-16T12:33:36Z</time>
      </trkpt>
      <trkpt lat="47.28466" lon="6.08355">
        <ele>363</ele>
        <time>2012-04-16T12:33:44Z</time>
      </trkpt>
      <trkpt lat="47.28466" lon="6.08355">
        <ele>303.6</ele>
        <time>2012-04-16T12:33:55Z</time>
      </trkpt>
      <trkpt lat="47.28466" lon="6.08355">
        <ele>303.6</ele>
        <time>2012-04-16T12:33:59Z</time>
      </trkpt>
      <trkpt lat="47.28466" lon="6.08355">
        <ele>303.6</ele>
        <time>2012-04-16T12:34:10Z</time>
      </trkpt>
      <trkpt lat="47.28466" lon="6.08355">
        <ele>303.6</ele>
        <time>2012-04-16T12:41:02Z</time>
      </trkpt>
      <trkpt lat="47.28475" lon="6.08398">
        <ele>351.4</ele>
        <time>2012-04-16T12:41:04Z</time>
      </trkpt>
      <trkpt lat="47.28471" lon="6.08413">
        <ele>351.4</ele>
        <time>2012-04-16T12:41:06Z</time>
      </trkpt>
      <trkpt lat="47.28477" lon="6.08426">
        <ele>352.4</ele>
        <time>2012-04-16T12:41:11Z</time>
      </trkpt>
      <trkpt lat="47.28483" lon="6.08432">
        <ele>357.9</ele>
        <time>2012-04-16T12:41:15Z</time>
      </trkpt>
      <trkpt lat="47.28486" lon="6.08441">
        <ele>362.9</ele>
        <time>2012-04-16T12:41:24Z</time>
      </trkpt>
      <trkpt lat="47.28486" lon="6.08441">
        <ele>319.4</ele>
        <time>2012-04-16T12:41:35Z</time>
      </trkpt>
      <trkpt lat="47.28486" lon="6.08441">
        <ele>319.4</ele>
        <time>2012-04-16T12:41:54Z</time>
      </trkpt>
      <trkpt lat="47.28495" lon="6.08458">
        <ele>363.1</ele>
        <time>2012-04-16T12:42:04Z</time>
      </trkpt>
      <trkpt lat="47.285" lon="6.08466">
        <ele>362.6</ele>
        <time>2012-04-16T12:42:07Z</time>
      </trkpt>
      <trkpt lat="47.28507" lon="6.08472">
        <ele>362.7</ele>
        <time>2012-04-16T12:42:10Z</time>
      </trkpt>
      <trkpt lat="47.28513" lon="6.08477">
        <ele>362.5</ele>
        <time>2012-04-16T12:42:14Z</time>
      </trkpt>
      <trkpt lat="47.28518" lon="6.08483">
        <ele>362.1</ele>
        <time>2012-04-16T12:42:19Z</time>
      </trkpt>
      <trkpt lat="47.28522" lon="6.08491">
        <ele>361.9</ele>
        <time>2012-04-16T12:42:25Z</time>
      </trkpt>
      <trkpt lat="47.28523" lon="6.08502">
        <ele>360.7</ele>
        <time>2012-04-16T12:42:30Z</time>
      </trkpt>
      <trkpt lat="47.28531" lon="6.08506">
        <ele>363.4</ele>
        <time>2012-04-16T12:42:37Z</time>
      </trkpt>
      <trkpt lat="47.28536" lon="6.08513">
        <ele>365.2</ele>
        <time>2012-04-16T12:42:43Z</time>
      </trkpt>
      <trkpt lat="47.2854" lon="6.08522">
        <ele>364.7</ele>
        <time>2012-04-16T12:42:49Z</time>
      </trkpt>
      <trkpt lat="47.28546" lon="6.08527">
        <ele>365.7</ele>
        <time>2012-04-16T12:42:54Z</time>
      </trkpt>
      <trkpt lat="47.2855" lon="6.08535">
        <ele>367.5</ele>
        <time>2012-04-16T12:43:00Z</time>
      </trkpt>
      <trkpt lat="47.28555" lon="6.08542">
        <ele>368.6</ele>
        <time>2012-04-16T12:43:06Z</time>
      </trkpt>
      <trkpt lat="47.2856" lon="6.08547">
        <ele>368.6</ele>
        <time>2012-04-16T12:43:15Z</time>
      </trkpt>
      <trkpt lat="47.28567" lon="6.08553">
        <ele>369.7</ele>
        <time>2012-04-16T12:43:21Z</time>
      </trkpt>
      <trkpt lat="47.28567" lon="6.08553">
        <ele>321.4</ele>
        <time>2012-04-16T12:43:32Z</time>
      </trkpt>
      <trkpt lat="47.28567" lon="6.08553">
        <ele>321.4</ele>
        <time>2012-04-16T12:43:56Z</time>
      </trkpt>
      <trkpt lat="47.28579" lon="6.08563">
        <ele>372.5</ele>
        <time>2012-04-16T12:44:00Z</time>
      </trkpt>
      <trkpt lat="47.28579" lon="6.08563">
        <ele>321.9</ele>
        <time>2012-04-16T12:44:11Z</time>
      </trkpt>
      <trkpt lat="47.28579" lon="6.08563">
        <ele>321.9</ele>
        <time>2012-04-16T12:44:38Z</time>
      </trkpt>
      <trkpt lat="47.2859" lon="6.08578">
        <ele>370.9</ele>
        <time>2012-04-16T12:44:41Z</time>
      </trkpt>
      <trkpt lat="47.28595" lon="6.08586">
        <ele>370.5</ele>
        <time>2012-04-16T12:44:44Z</time>
      </trkpt>
      <trkpt lat="47.286" lon="6.08594">
        <ele>370.7</ele>
        <time>2012-04-16T12:44:48Z</time>
      </trkpt>
      <trkpt lat="47.28606" lon="6.086">
        <ele>370.9</ele>
        <time>2012-04-16T12:44:52Z</time>
      </trkpt>
      <trkpt lat="47.28605" lon="6.0861">
        <ele>369.9</ele>
        <time>2012-04-16T12:45:03Z</time>
      </trkpt>
      <trkpt lat="47.28605" lon="6.0861">
        <ele>320.5</ele>
        <time>2012-04-16T12:45:15Z</time>
      </trkpt>
      <trkpt lat="47.28605" lon="6.0861">
        <ele>320.5</ele>
        <time>2012-04-16T12:45:20Z</time>
      </trkpt>
      <trkpt lat="47.28596" lon="6.08624">
        <ele>371</ele>
        <time>2012-04-16T12:45:27Z</time>
      </trkpt>
      <trkpt lat="47.28596" lon="6.08624">
        <ele>318.2</ele>
        <time>2012-04-16T12:45:38Z</time>
      </trkpt>
      <trkpt lat="47.28596" lon="6.08624">
        <ele>318.2</ele>
        <time>2012-04-16T12:45:41Z</time>
      </trkpt>
      <trkpt lat="47.28584" lon="6.08639">
        <ele>372.5</ele>
        <time>2012-04-16T12:45:43Z</time>
      </trkpt>
      <trkpt lat="47.28579" lon="6.08646">
        <ele>372.7</ele>
        <time>2012-04-16T12:45:45Z</time>
      </trkpt>
      <trkpt lat="47.28573" lon="6.08652">
        <ele>373.6</ele>
        <time>2012-04-16T12:45:48Z</time>
      </trkpt>
      <trkpt lat="47.28568" lon="6.08657">
        <ele>375.1</ele>
        <time>2012-04-16T12:45:51Z</time>
      </trkpt>
      <trkpt lat="47.28565" lon="6.08666">
        <ele>375.1</ele>
        <time>2012-04-16T12:45:59Z</time>
      </trkpt>
      <trkpt lat="47.28559" lon="6.08674">
        <ele>375.9</ele>
        <time>2012-04-16T12:46:09Z</time>
      </trkpt>
      <trkpt lat="47.28553" lon="6.0868">
        <ele>375.7</ele>
        <time>2012-04-16T12:46:12Z</time>
      </trkpt>
      <trkpt lat="47.28547" lon="6.08685">
        <ele>375</ele>
        <time>2012-04-16T12:46:16Z</time>
      </trkpt>
      <trkpt lat="47.28543" lon="6.08696">
        <ele>374.3</ele>
        <time>2012-04-16T12:46:20Z</time>
      </trkpt>
      <trkpt lat="47.28543" lon="6.08696">
        <ele>313</ele>
        <time>2012-04-16T12:46:31Z</time>
      </trkpt>
      <trkpt lat="47.28543" lon="6.08696">
        <ele>313</ele>
        <time>2012-04-16T12:46:58Z</time>
      </trkpt>
      <trkpt lat="47.28543" lon="6.08696">
        <ele>313</ele>
        <time>2012-04-16T12:47:09Z</time>
      </trkpt>
      <trkpt lat="47.28543" lon="6.08696">
        <ele>313</ele>
        <time>2012-04-16T12:47:11Z</time>
      </trkpt>
      <trkpt lat="47.28524" lon="6.08719">
        <ele>371</ele>
        <time>2012-04-16T12:47:14Z</time>
      </trkpt>
      <trkpt lat="47.28518" lon="6.08726">
        <ele>372.3</ele>
        <time>2012-04-16T12:47:18Z</time>
      </trkpt>
      <trkpt lat="47.28519" lon="6.08738">
        <ele>372.5</ele>
        <time>2012-04-16T12:47:26Z</time>
      </trkpt>
      <trkpt lat="47.28519" lon="6.08738">
        <ele>313.2</ele>
        <time>2012-04-16T12:47:38Z</time>
      </trkpt>
      <trkpt lat="47.28519" lon="6.08738">
        <ele>313.2</ele>
        <time>2012-04-16T12:48:07Z</time>
      </trkpt>
      <trkpt lat="47.28533" lon="6.08742">
        <ele>364.3</ele>
        <time>2012-04-16T12:48:11Z</time>
      </trkpt>
      <trkpt lat="47.28538" lon="6.08748">
        <ele>365.1</ele>
        <time>2012-04-16T12:48:16Z</time>
      </trkpt>
      <trkpt lat="47.28542" lon="6.08757">
        <ele>364.4</ele>
        <time>2012-04-16T12:48:23Z</time>
      </trkpt>
      <trkpt lat="47.28546" lon="6.08767">
        <ele>366.8</ele>
        <time>2012-04-16T12:48:28Z</time>
      </trkpt>
      <trkpt lat="47.28553" lon="6.08766">
        <ele>369.9</ele>
        <time>2012-04-16T12:48:31Z</time>
      </trkpt>
      <trkpt lat="47.2856" lon="6.0877">
        <ele>370.1</ele>
        <time>2012-04-16T12:48:35Z</time>
      </trkpt>
      <trkpt lat="47.28566" lon="6.08775">
        <ele>369.3</ele>
        <time>2012-04-16T12:48:41Z</time>
      </trkpt>
      <trkpt lat="47.28572" lon="6.08773">
        <ele>368.7</ele>
        <time>2012-04-16T12:48:47Z</time>
      </trkpt>
      <trkpt lat="47.28578" lon="6.08779">
        <ele>367</ele>
        <time>2012-04-16T12:48:57Z</time>
      </trkpt>
      <trkpt lat="47.28585" lon="6.08782">
        <ele>365.2</ele>
        <time>2012-04-16T12:49:03Z</time>
      </trkpt>
      <trkpt lat="47.28585" lon="6.08793">
        <ele>365.6</ele>
        <time>2012-04-16T12:49:08Z</time>
      </trkpt>
      <trkpt lat="47.28591" lon="6.08797">
        <ele>365.7</ele>
        <time>2012-04-16T12:49:15Z</time>
      </trkpt>
      <trkpt lat="47.28596" lon="6.08803">
        <ele>364.9</ele>
        <time>2012-04-16T12:49:22Z</time>
      </trkpt>
      <trkpt lat="47.28602" lon="6.08812">
        <ele>363.2</ele>
        <time>2012-04-16T12:49:32Z</time>
      </trkpt>
      <trkpt lat="47.28607" lon="6.08818">
        <ele>362.4</ele>
        <time>2012-04-16T12:49:38Z</time>
      </trkpt>
      <trkpt lat="47.28609" lon="6.08827">
        <ele>362.2</ele>
        <time>2012-04-16T12:49:47Z</time>
      </trkpt>
      <trkpt lat="47.28612" lon="6.08835">
        <ele>362.1</ele>
        <time>2012-04-16T12:49:53Z</time>
      </trkpt>
      <trkpt lat="47.28612" lon="6.08846">
        <ele>362</ele>
        <time>2012-04-16T12:49:58Z</time>
      </trkpt>
      <trkpt lat="47.28617" lon="6.08853">
        <ele>361.7</ele>
        <time>2012-04-16T12:50:05Z</time>
      </trkpt>
      <trkpt lat="47.28618" lon="6.08864">
        <ele>361.2</ele>
        <time>2012-04-16T12:50:12Z</time>
      </trkpt>
      <trkpt lat="47.2862" lon="6.08873">
        <ele>360.8</ele>
        <time>2012-04-16T12:50:16Z</time>
      </trkpt>
      <trkpt lat="47.28623" lon="6.08882">
        <ele>361.2</ele>
        <time>2012-04-16T12:50:21Z</time>
      </trkpt>
      <trkpt lat="47.28626" lon="6.08892">
        <ele>361.2</ele>
        <time>2012-04-16T12:50:27Z</time>
      </trkpt>
      <trkpt lat="47.28626" lon="6.08902">
        <ele>361.5</ele>
        <time>2012-04-16T12:50:32Z</time>
      </trkpt>
      <trkpt lat="47.28628" lon="6.08913">
        <ele>359.2</ele>
        <time>2012-04-16T12:50:40Z</time>
      </trkpt>
      <trkpt lat="47.28632" lon="6.08922">
        <ele>360</ele>
        <time>2012-04-16T12:50:48Z</time>
      </trkpt>
      <trkpt lat="47.28637" lon="6.08929">
        <ele>361.6</ele>
        <time>2012-04-16T12:50:53Z</time>
      </trkpt>
      <trkpt lat="47.28636" lon="6.0894">
        <ele>361.2</ele>
        <time>2012-04-16T12:50:59Z</time>
      </trkpt>
      <trkpt lat="47.28642" lon="6.08947">
        <ele>360.4</ele>
        <time>2012-04-16T12:51:05Z</time>
      </trkpt>
      <trkpt lat="47.28647" lon="6.08951">
        <ele>359.4</ele>
        <time>2012-04-16T12:51:12Z</time>
      </trkpt>
      <trkpt lat="47.28653" lon="6.08959">
        <ele>359.4</ele>
        <time>2012-04-16T12:51:19Z</time>
      </trkpt>
      <trkpt lat="47.28654" lon="6.0897">
        <ele>359.1</ele>
        <time>2012-04-16T12:51:24Z</time>
      </trkpt>
      <trkpt lat="47.28657" lon="6.08978">
        <ele>358.9</ele>
        <time>2012-04-16T12:51:31Z</time>
      </trkpt>
      <trkpt lat="47.28662" lon="6.08985">
        <ele>360.6</ele>
        <time>2012-04-16T12:51:37Z</time>
      </trkpt>
      <trkpt lat="47.28666" lon="6.08993">
        <ele>360.1</ele>
        <time>2012-04-16T12:51:44Z</time>
      </trkpt>
      <trkpt lat="47.28666" lon="6.09004">
        <ele>359.9</ele>
        <time>2012-04-16T12:51:51Z</time>
      </trkpt>
      <trkpt lat="47.28667" lon="6.09014">
        <ele>359.1</ele>
        <time>2012-04-16T12:51:56Z</time>
      </trkpt>
      <trkpt lat="47.28671" lon="6.09022">
        <ele>358.9</ele>
        <time>2012-04-16T12:52:02Z</time>
      </trkpt>
      <trkpt lat="47.28676" lon="6.0903">
        <ele>357.5</ele>
        <time>2012-04-16T12:52:08Z</time>
      </trkpt>
      <trkpt lat="47.2868" lon="6.09038">
        <ele>356.9</ele>
        <time>2012-04-16T12:52:16Z</time>
      </trkpt>
      <trkpt lat="47.28688" lon="6.09042">
        <ele>357.1</ele>
        <time>2012-04-16T12:52:23Z</time>
      </trkpt>
      <trkpt lat="47.28693" lon="6.09048">
        <ele>354.7</ele>
        <time>2012-04-16T12:52:33Z</time>
      </trkpt>
      <trkpt lat="47.28698" lon="6.09056">
        <ele>352.1</ele>
        <time>2012-04-16T12:52:41Z</time>
      </trkpt>
      <trkpt lat="47.28703" lon="6.09062">
        <ele>350.6</ele>
        <time>2012-04-16T12:52:49Z</time>
      </trkpt>
      <trkpt lat="47.2871" lon="6.09065">
        <ele>351.9</ele>
        <time>2012-04-16T12:53:00Z</time>
      </trkpt>
      <trkpt lat="47.28712" lon="6.09074">
        <ele>350.8</ele>
        <time>2012-04-16T12:53:09Z</time>
      </trkpt>
      <trkpt lat="47.28718" lon="6.09081">
        <ele>351.3</ele>
        <time>2012-04-16T12:53:16Z</time>
      </trkpt>
      <trkpt lat="47.28724" lon="6.09088">
        <ele>352.3</ele>
        <time>2012-04-16T12:53:23Z</time>
      </trkpt>
      <trkpt lat="47.28729" lon="6.09096">
        <ele>354.1</ele>
        <time>2012-04-16T12:53:30Z</time>
      </trkpt>
      <trkpt lat="47.28733" lon="6.09104">
        <ele>353.9</ele>
        <time>2012-04-16T12:53:37Z</time>
      </trkpt>
      <trkpt lat="47.28736" lon="6.09114">
        <ele>354.8</ele>
        <time>2012-04-16T12:53:44Z</time>
      </trkpt>
      <trkpt lat="47.28737" lon="6.09125">
        <ele>355.3</ele>
        <time>2012-04-16T12:53:51Z</time>
      </trkpt>
      <trkpt lat="47.28738" lon="6.09136">
        <ele>356.4</ele>
        <time>2012-04-16T12:53:58Z</time>
      </trkpt>
      <trkpt lat="47.28742" lon="6.09144">
        <ele>356.9</ele>
        <time>2012-04-16T12:54:04Z</time>
      </trkpt>
      <trkpt lat="47.28744" lon="6.09154">
        <ele>357.8</ele>
        <time>2012-04-16T12:54:11Z</time>
      </trkpt>
      <trkpt lat="47.28749" lon="6.0916">
        <ele>357.4</ele>
        <time>2012-04-16T12:54:19Z</time>
      </trkpt>
      <trkpt lat="47.28751" lon="6.0917">
        <ele>357</ele>
        <time>2012-04-16T12:54:25Z</time>
      </trkpt>
      <trkpt lat="47.28754" lon="6.0918">
        <ele>356.2</ele>
        <time>2012-04-16T12:54:35Z</time>
      </trkpt>
      <trkpt lat="47.28759" lon="6.09189">
        <ele>357.7</ele>
        <time>2012-04-16T12:54:43Z</time>
      </trkpt>
      <trkpt lat="47.28759" lon="6.09198">
        <ele>357.2</ele>
        <time>2012-04-16T12:54:48Z</time>
      </trkpt>
      <trkpt lat="47.2876" lon="6.09209">
        <ele>355.4</ele>
        <time>2012-04-16T12:54:55Z</time>
      </trkpt>
      <trkpt lat="47.28765" lon="6.09216">
        <ele>354.5</ele>
        <time>2012-04-16T12:55:03Z</time>
      </trkpt>
      <trkpt lat="47.28768" lon="6.09224">
        <ele>352.6</ele>
        <time>2012-04-16T12:55:09Z</time>
      </trkpt>
      <trkpt lat="47.28772" lon="6.09233">
        <ele>354.9</ele>
        <time>2012-04-16T12:55:16Z</time>
      </trkpt>
      <trkpt lat="47.28771" lon="6.09242">
        <ele>356.5</ele>
        <time>2012-04-16T12:55:20Z</time>
      </trkpt>
      <trkpt lat="47.28776" lon="6.09248">
        <ele>359</ele>
        <time>2012-04-16T12:55:29Z</time>
      </trkpt>
      <trkpt lat="47.28781" lon="6.09255">
        <ele>358.3</ele>
        <time>2012-04-16T12:55:36Z</time>
      </trkpt>
      <trkpt lat="47.28784" lon="6.09262">
        <ele>357.5</ele>
        <time>2012-04-16T12:55:41Z</time>
      </trkpt>
      <trkpt lat="47.28786" lon="6.09273">
        <ele>359.7</ele>
        <time>2012-04-16T12:55:51Z</time>
      </trkpt>
      <trkpt lat="47.2879" lon="6.09282">
        <ele>359.2</ele>
        <time>2012-04-16T12:56:01Z</time>
      </trkpt>
      <trkpt lat="47.28792" lon="6.09291">
        <ele>358.7</ele>
        <time>2012-04-16T12:56:07Z</time>
      </trkpt>
      <trkpt lat="47.28798" lon="6.09299">
        <ele>359.8</ele>
        <time>2012-04-16T12:56:13Z</time>
      </trkpt>
      <trkpt lat="47.28802" lon="6.09307">
        <ele>360.1</ele>
        <time>2012-04-16T12:56:23Z</time>
      </trkpt>
      <trkpt lat="47.28802" lon="6.09317">
        <ele>360.5</ele>
        <time>2012-04-16T12:56:27Z</time>
      </trkpt>
      <trkpt lat="47.28807" lon="6.09325">
        <ele>360.8</ele>
        <time>2012-04-16T12:56:35Z</time>
      </trkpt>
      <trkpt lat="47.28808" lon="6.09334">
        <ele>360.6</ele>
        <time>2012-04-16T12:56:41Z</time>
      </trkpt>
      <trkpt lat="47.28808" lon="6.09345">
        <ele>359.3</ele>
        <time>2012-04-16T12:56:47Z</time>
      </trkpt>
      <trkpt lat="47.28808" lon="6.09354">
        <ele>360.3</ele>
        <time>2012-04-16T12:56:51Z</time>
      </trkpt>
      <trkpt lat="47.2881" lon="6.09363">
        <ele>360.7</ele>
        <time>2012-04-16T12:56:56Z</time>
      </trkpt>
      <trkpt lat="47.28812" lon="6.09372">
        <ele>360.5</ele>
        <time>2012-04-16T12:57:02Z</time>
      </trkpt>
      <trkpt lat="47.28812" lon="6.09372">
        <ele>313.4</ele>
        <time>2012-04-16T12:57:13Z</time>
      </trkpt>
      <trkpt lat="47.28812" lon="6.09372">
        <ele>313.4</ele>
        <time>2012-04-16T12:57:18Z</time>
      </trkpt>
      <trkpt lat="47.28822" lon="6.09385">
        <ele>363.6</ele>
        <time>2012-04-16T12:57:24Z</time>
      </trkpt>
      <trkpt lat="47.28824" lon="6.09395">
        <ele>364.1</ele>
        <time>2012-04-16T12:57:34Z</time>
      </trkpt>
      <trkpt lat="47.28826" lon="6.09405">
        <ele>364.2</ele>
        <time>2012-04-16T12:57:40Z</time>
      </trkpt>
      <trkpt lat="47.28826" lon="6.09415">
        <ele>365.2</ele>
        <time>2012-04-16T12:57:47Z</time>
      </trkpt>
      <trkpt lat="47.2883" lon="6.09424">
        <ele>363.7</ele>
        <time>2012-04-16T12:57:56Z</time>
      </trkpt>
      <trkpt lat="47.28834" lon="6.09431">
        <ele>363.3</ele>
        <time>2012-04-16T12:58:05Z</time>
      </trkpt>
      <trkpt lat="47.2884" lon="6.09436">
        <ele>362.5</ele>
        <time>2012-04-16T12:58:14Z</time>
      </trkpt>
      <trkpt lat="47.28839" lon="6.09445">
        <ele>361.5</ele>
        <time>2012-04-16T12:58:22Z</time>
      </trkpt>
      <trkpt lat="47.28841" lon="6.09456">
        <ele>362.7</ele>
        <time>2012-04-16T12:58:31Z</time>
      </trkpt>
      <trkpt lat="47.28842" lon="6.09466">
        <ele>363.5</ele>
        <time>2012-04-16T12:58:39Z</time>
      </trkpt>
      <trkpt lat="47.28842" lon="6.09477">
        <ele>362.5</ele>
        <time>2012-04-16T12:58:49Z</time>
      </trkpt>
      <trkpt lat="47.28845" lon="6.09487">
        <ele>360.4</ele>
        <time>2012-04-16T12:58:59Z</time>
      </trkpt>
      <trkpt lat="47.28842" lon="6.09495">
        <ele>360.7</ele>
        <time>2012-04-16T12:59:02Z</time>
      </trkpt>
      <trkpt lat="47.28845" lon="6.09506">
        <ele>359.2</ele>
        <time>2012-04-16T12:59:09Z</time>
      </trkpt>
      <trkpt lat="47.28849" lon="6.09513">
        <ele>360.8</ele>
        <time>2012-04-16T12:59:16Z</time>
      </trkpt>
      <trkpt lat="47.28856" lon="6.0952">
        <ele>360.4</ele>
        <time>2012-04-16T12:59:24Z</time>
      </trkpt>
      <trkpt lat="47.28856" lon="6.0952">
        <ele>315.7</ele>
        <time>2012-04-16T12:59:35Z</time>
      </trkpt>
      <trkpt lat="47.28856" lon="6.0952">
        <ele>315.7</ele>
        <time>2012-04-16T13:00:16Z</time>
      </trkpt>
      <trkpt lat="47.28869" lon="6.09507">
        <ele>361.4</ele>
        <time>2012-04-16T13:00:21Z</time>
      </trkpt>
      <trkpt lat="47.28875" lon="6.09499">
        <ele>361.6</ele>
        <time>2012-04-16T13:00:27Z</time>
      </trkpt>
      <trkpt lat="47.28881" lon="6.09494">
        <ele>362.3</ele>
        <time>2012-04-16T13:00:33Z</time>
      </trkpt>
      <trkpt lat="47.28881" lon="6.09494">
        <ele>314.1</ele>
        <time>2012-04-16T13:00:44Z</time>
      </trkpt>
      <trkpt lat="47.28881" lon="6.09494">
        <ele>314.1</ele>
        <time>2012-04-16T13:01:11Z</time>
      </trkpt>
      <trkpt lat="47.28896" lon="6.09481">
        <ele>361.4</ele>
        <time>2012-04-16T13:01:14Z</time>
      </trkpt>
      <trkpt lat="47.28904" lon="6.09477">
        <ele>362.5</ele>
        <time>2012-04-16T13:01:18Z</time>
      </trkpt>
      <trkpt lat="47.2891" lon="6.0947">
        <ele>362.3</ele>
        <time>2012-04-16T13:01:22Z</time>
      </trkpt>
      <trkpt lat="47.28917" lon="6.09464">
        <ele>363.3</ele>
        <time>2012-04-16T13:01:30Z</time>
      </trkpt>
      <trkpt lat="47.28922" lon="6.09458">
        <ele>363</ele>
        <time>2012-04-16T13:01:39Z</time>
      </trkpt>
      <trkpt lat="47.28928" lon="6.0945">
        <ele>366.1</ele>
        <time>2012-04-16T13:01:47Z</time>
      </trkpt>
      <trkpt lat="47.28931" lon="6.09442">
        <ele>365.9</ele>
        <time>2012-04-16T13:01:54Z</time>
      </trkpt>
      <trkpt lat="47.28937" lon="6.09435">
        <ele>366.8</ele>
        <time>2012-04-16T13:02:02Z</time>
      </trkpt>
      <trkpt lat="47.28937" lon="6.09435">
        <ele>311.3</ele>
        <time>2012-04-16T13:02:13Z</time>
      </trkpt>
      <trkpt lat="47.28937" lon="6.09435">
        <ele>311.3</ele>
        <time>2012-04-16T13:02:15Z</time>
      </trkpt>
      <trkpt lat="47.28949" lon="6.09423">
        <ele>367.8</ele>
        <time>2012-04-16T13:02:21Z</time>
      </trkpt>
      <trkpt lat="47.28956" lon="6.09424">
        <ele>365.4</ele>
        <time>2012-04-16T13:02:26Z</time>
      </trkpt>
      <trkpt lat="47.28959" lon="6.09415">
        <ele>364.6</ele>
        <time>2012-04-16T13:02:35Z</time>
      </trkpt>
      <trkpt lat="47.28964" lon="6.09408">
        <ele>362.5</ele>
        <time>2012-04-16T13:02:41Z</time>
      </trkpt>
      <trkpt lat="47.28971" lon="6.09408">
        <ele>363.1</ele>
        <time>2012-04-16T13:02:49Z</time>
      </trkpt>
      <trkpt lat="47.28971" lon="6.09408">
        <ele>314.2</ele>
        <time>2012-04-16T13:03:00Z</time>
      </trkpt>
      <trkpt lat="47.28971" lon="6.09408">
        <ele>314.2</ele>
        <time>2012-04-16T13:03:01Z</time>
      </trkpt>
      <trkpt lat="47.28981" lon="6.09395">
        <ele>365.7</ele>
        <time>2012-04-16T13:03:09Z</time>
      </trkpt>
      <trkpt lat="47.28988" lon="6.09391">
        <ele>365.2</ele>
        <time>2012-04-16T13:03:19Z</time>
      </trkpt>
      <trkpt lat="47.28992" lon="6.09383">
        <ele>364.3</ele>
        <time>2012-04-16T13:03:29Z</time>
      </trkpt>
      <trkpt lat="47.28998" lon="6.09379">
        <ele>363.3</ele>
        <time>2012-04-16T13:03:35Z</time>
      </trkpt>
      <trkpt lat="47.29002" lon="6.09371">
        <ele>365.7</ele>
        <time>2012-04-16T13:03:43Z</time>
      </trkpt>
      <trkpt lat="47.29008" lon="6.09367">
        <ele>366.7</ele>
        <time>2012-04-16T13:03:51Z</time>
      </trkpt>
      <trkpt lat="47.29014" lon="6.09358">
        <ele>365.1</ele>
        <time>2012-04-16T13:04:00Z</time>
      </trkpt>
      <trkpt lat="47.29019" lon="6.09352">
        <ele>366.7</ele>
        <time>2012-04-16T13:04:06Z</time>
      </trkpt>
      <trkpt lat="47.29025" lon="6.09347">
        <ele>366.7</ele>
        <time>2012-04-16T13:04:14Z</time>
      </trkpt>
      <trkpt lat="47.29025" lon="6.09347">
        <ele>317.8</ele>
        <time>2012-04-16T13:04:25Z</time>
      </trkpt>
      <trkpt lat="47.29025" lon="6.09347">
        <ele>317.8</ele>
        <time>2012-04-16T13:04:40Z</time>
      </trkpt>
      <trkpt lat="47.29034" lon="6.09333">
        <ele>369.7</ele>
        <time>2012-04-16T13:04:45Z</time>
      </trkpt>
      <trkpt lat="47.29037" lon="6.0934">
        <ele>369.2</ele>
        <time>2012-04-16T13:04:47Z</time>
      </trkpt>
      <trkpt lat="47.29037" lon="6.0934">
        <ele>318.3</ele>
        <time>2012-04-16T13:04:58Z</time>
      </trkpt>
      <trkpt lat="47.29037" lon="6.0934">
        <ele>318.3</ele>
        <time>2012-04-16T13:06:22Z</time>
      </trkpt>
      <trkpt lat="47.29025" lon="6.09342">
        <ele>374.6</ele>
        <time>2012-04-16T13:06:29Z</time>
      </trkpt>
      <trkpt lat="47.2902" lon="6.09333">
        <ele>378.1</ele>
        <time>2012-04-16T13:06:36Z</time>
      </trkpt>
      <trkpt lat="47.29014" lon="6.09334">
        <ele>378</ele>
        <time>2012-04-16T13:06:43Z</time>
      </trkpt>
      <trkpt lat="47.29007" lon="6.09331">
        <ele>379</ele>
        <time>2012-04-16T13:06:49Z</time>
      </trkpt>
      <trkpt lat="47.29001" lon="6.09323">
        <ele>380.6</ele>
        <time>2012-04-16T13:06:56Z</time>
      </trkpt>
      <trkpt lat="47.28999" lon="6.09313">
        <ele>381.4</ele>
        <time>2012-04-16T13:07:00Z</time>
      </trkpt>
      <trkpt lat="47.28993" lon="6.0931">
        <ele>380.7</ele>
        <time>2012-04-16T13:07:09Z</time>
      </trkpt>
      <trkpt lat="47.28993" lon="6.093">
        <ele>378.8</ele>
        <time>2012-04-16T13:07:14Z</time>
      </trkpt>
      <trkpt lat="47.28988" lon="6.09294">
        <ele>379.8</ele>
        <time>2012-04-16T13:07:19Z</time>
      </trkpt>
      <trkpt lat="47.28988" lon="6.09294">
        <ele>316.3</ele>
        <time>2012-04-16T13:07:30Z</time>
      </trkpt>
      <trkpt lat="47.28988" lon="6.09294">
        <ele>316.3</ele>
        <time>2012-04-16T13:07:45Z</time>
      </trkpt>
      <trkpt lat="47.28979" lon="6.09277">
        <ele>378.6</ele>
        <time>2012-04-16T13:07:51Z</time>
      </trkpt>
      <trkpt lat="47.28979" lon="6.09277">
        <ele>315.8</ele>
        <time>2012-04-16T13:08:03Z</time>
      </trkpt>
      <trkpt lat="47.28979" lon="6.09277">
        <ele>315.8</ele>
        <time>2012-04-16T13:08:14Z</time>
      </trkpt>
      <trkpt lat="47.28967" lon="6.09264">
        <ele>376</ele>
        <time>2012-04-16T13:08:15Z</time>
      </trkpt>
      <trkpt lat="47.2896" lon="6.09257">
        <ele>374.7</ele>
        <time>2012-04-16T13:08:19Z</time>
      </trkpt>
      <trkpt lat="47.28956" lon="6.09249">
        <ele>374.7</ele>
        <time>2012-04-16T13:08:21Z</time>
      </trkpt>
      <trkpt lat="47.28952" lon="6.0924">
        <ele>374.6</ele>
        <time>2012-04-16T13:08:23Z</time>
      </trkpt>
      <trkpt lat="47.28945" lon="6.09233">
        <ele>376</ele>
        <time>2012-04-16T13:08:26Z</time>
      </trkpt>
      <trkpt lat="47.2894" lon="6.09225">
        <ele>374.6</ele>
        <time>2012-04-16T13:08:29Z</time>
      </trkpt>
      <trkpt lat="47.28935" lon="6.09218">
        <ele>373.7</ele>
        <time>2012-04-16T13:08:32Z</time>
      </trkpt>
      <trkpt lat="47.28935" lon="6.09218">
        <ele>316.1</ele>
        <time>2012-04-16T13:08:43Z</time>
      </trkpt>
      <trkpt lat="47.28935" lon="6.09218">
        <ele>316.1</ele>
        <time>2012-04-16T13:09:03Z</time>
      </trkpt>
      <trkpt lat="47.28924" lon="6.09199">
        <ele>375.6</ele>
        <time>2012-04-16T13:09:04Z</time>
      </trkpt>
      <trkpt lat="47.28919" lon="6.09191">
        <ele>374.6</ele>
        <time>2012-04-16T13:09:07Z</time>
      </trkpt>
      <trkpt lat="47.28911" lon="6.09184">
        <ele>373.3</ele>
        <time>2012-04-16T13:09:11Z</time>
      </trkpt>
      <trkpt lat="47.28908" lon="6.09175">
        <ele>373.5</ele>
        <time>2012-04-16T13:09:17Z</time>
      </trkpt>
      <trkpt lat="47.28908" lon="6.09175">
        <ele>316.7</ele>
        <time>2012-04-16T13:09:29Z</time>
      </trkpt>
      <trkpt lat="47.28908" lon="6.09175">
        <ele>316.7</ele>
        <time>2012-04-16T13:09:52Z</time>
      </trkpt>
      <trkpt lat="47.28904" lon="6.09157">
        <ele>374.6</ele>
        <time>2012-04-16T13:09:54Z</time>
      </trkpt>
      <trkpt lat="47.289" lon="6.09146">
        <ele>374.4</ele>
        <time>2012-04-16T13:09:58Z</time>
      </trkpt>
      <trkpt lat="47.28898" lon="6.09134">
        <ele>373.2</ele>
        <time>2012-04-16T13:10:00Z</time>
      </trkpt>
      <trkpt lat="47.28895" lon="6.09123">
        <ele>372.8</ele>
        <time>2012-04-16T13:10:02Z</time>
      </trkpt>
      <trkpt lat="47.2889" lon="6.0911">
        <ele>372.8</ele>
        <time>2012-04-16T13:10:05Z</time>
      </trkpt>
      <trkpt lat="47.28887" lon="6.09101">
        <ele>372.7</ele>
        <time>2012-04-16T13:10:09Z</time>
      </trkpt>
      <trkpt lat="47.28888" lon="6.0909">
        <ele>371.3</ele>
        <time>2012-04-16T13:10:18Z</time>
      </trkpt>
      <trkpt lat="47.28884" lon="6.09081">
        <ele>370.3</ele>
        <time>2012-04-16T13:10:23Z</time>
      </trkpt>
      <trkpt lat="47.2888" lon="6.0907">
        <ele>371.1</ele>
        <time>2012-04-16T13:10:29Z</time>
      </trkpt>
      <trkpt lat="47.28876" lon="6.09059">
        <ele>371.1</ele>
        <time>2012-04-16T13:10:33Z</time>
      </trkpt>
      <trkpt lat="47.28874" lon="6.0905">
        <ele>370.9</ele>
        <time>2012-04-16T13:10:36Z</time>
      </trkpt>
      <trkpt lat="47.28872" lon="6.0904">
        <ele>369.6</ele>
        <time>2012-04-16T13:10:40Z</time>
      </trkpt>
      <trkpt lat="47.28867" lon="6.09033">
        <ele>369.2</ele>
        <time>2012-04-16T13:10:42Z</time>
      </trkpt>
      <trkpt lat="47.28863" lon="6.09025">
        <ele>370.9</ele>
        <time>2012-04-16T13:10:48Z</time>
      </trkpt>
      <trkpt lat="47.28858" lon="6.09018">
        <ele>371</ele>
        <time>2012-04-16T13:10:53Z</time>
      </trkpt>
      <trkpt lat="47.28855" lon="6.09009">
        <ele>373.5</ele>
        <time>2012-04-16T13:10:58Z</time>
      </trkpt>
      <trkpt lat="47.28856" lon="6.09">
        <ele>374.8</ele>
        <time>2012-04-16T13:11:06Z</time>
      </trkpt>
      <trkpt lat="47.28856" lon="6.09">
        <ele>318.4</ele>
        <time>2012-04-16T13:11:17Z</time>
      </trkpt>
      <trkpt lat="47.28856" lon="6.09">
        <ele>318.4</ele>
        <time>2012-04-16T13:11:18Z</time>
      </trkpt>
      <trkpt lat="47.28847" lon="6.08983">
        <ele>376.6</ele>
        <time>2012-04-16T13:11:23Z</time>
      </trkpt>
      <trkpt lat="47.28847" lon="6.08983">
        <ele>318.1</ele>
        <time>2012-04-16T13:11:34Z</time>
      </trkpt>
      <trkpt lat="47.28847" lon="6.08983">
        <ele>318.1</ele>
        <time>2012-04-16T13:11:51Z</time>
      </trkpt>
      <trkpt lat="47.28838" lon="6.08966">
        <ele>377.4</ele>
        <time>2012-04-16T13:11:52Z</time>
      </trkpt>
      <trkpt lat="47.28836" lon="6.08956">
        <ele>376.9</ele>
        <time>2012-04-16T13:11:55Z</time>
      </trkpt>
      <trkpt lat="47.2883" lon="6.08948">
        <ele>377.6</ele>
        <time>2012-04-16T13:12:00Z</time>
      </trkpt>
      <trkpt lat="47.28824" lon="6.08941">
        <ele>377.4</ele>
        <time>2012-04-16T13:12:05Z</time>
      </trkpt>
      <trkpt lat="47.28822" lon="6.08933">
        <ele>377.3</ele>
        <time>2012-04-16T13:12:09Z</time>
      </trkpt>
      <trkpt lat="47.28816" lon="6.08925">
        <ele>376.6</ele>
        <time>2012-04-16T13:12:16Z</time>
      </trkpt>
      <trkpt lat="47.28816" lon="6.08925">
        <ele>316.7</ele>
        <time>2012-04-16T13:12:27Z</time>
      </trkpt>
      <trkpt lat="47.28816" lon="6.08925">
        <ele>316.7</ele>
        <time>2012-04-16T13:12:29Z</time>
      </trkpt>
      <trkpt lat="47.28799" lon="6.08919">
        <ele>375.2</ele>
        <time>2012-04-16T13:12:34Z</time>
      </trkpt>
      <trkpt lat="47.28794" lon="6.08913">
        <ele>375.6</ele>
        <time>2012-04-16T13:12:37Z</time>
      </trkpt>
      <trkpt lat="47.28788" lon="6.08907">
        <ele>374.6</ele>
        <time>2012-04-16T13:12:45Z</time>
      </trkpt>
      <trkpt lat="47.28788" lon="6.08907">
        <ele>315.4</ele>
        <time>2012-04-16T13:12:57Z</time>
      </trkpt>
      <trkpt lat="47.28788" lon="6.08907">
        <ele>315.4</ele>
        <time>2012-04-16T13:12:57Z</time>
      </trkpt>
      <trkpt lat="47.28788" lon="6.08907">
        <ele>315.4</ele>
        <time>2012-04-16T13:13:09Z</time>
      </trkpt>
      <trkpt lat="47.28788" lon="6.08907">
        <ele>315.4</ele>
        <time>2012-04-16T13:13:10Z</time>
      </trkpt>
      <trkpt lat="47.28772" lon="6.08891">
        <ele>373.8</ele>
        <time>2012-04-16T13:13:12Z</time>
      </trkpt>
      <trkpt lat="47.28765" lon="6.08884">
        <ele>374.4</ele>
        <time>2012-04-16T13:13:16Z</time>
      </trkpt>
      <trkpt lat="47.2876" lon="6.08879">
        <ele>374.5</ele>
        <time>2012-04-16T13:13:18Z</time>
      </trkpt>
      <trkpt lat="47.28754" lon="6.0887">
        <ele>375.3</ele>
        <time>2012-04-16T13:13:22Z</time>
      </trkpt>
      <trkpt lat="47.28749" lon="6.08861">
        <ele>374.7</ele>
        <time>2012-04-16T13:13:28Z</time>
      </trkpt>
      <trkpt lat="47.28742" lon="6.0886">
        <ele>374</ele>
        <time>2012-04-16T13:13:33Z</time>
      </trkpt>
      <trkpt lat="47.2874" lon="6.08852">
        <ele>370.5</ele>
        <time>2012-04-16T13:13:39Z</time>
      </trkpt>
      <trkpt lat="47.28734" lon="6.08847">
        <ele>369.6</ele>
        <time>2012-04-16T13:13:48Z</time>
      </trkpt>
      <trkpt lat="47.28728" lon="6.08842">
        <ele>369.7</ele>
        <time>2012-04-16T13:13:51Z</time>
      </trkpt>
      <trkpt lat="47.28722" lon="6.08838">
        <ele>369.5</ele>
        <time>2012-04-16T13:13:54Z</time>
      </trkpt>
      <trkpt lat="47.28717" lon="6.08833">
        <ele>369.8</ele>
        <time>2012-04-16T13:13:58Z</time>
      </trkpt>
      <trkpt lat="47.28711" lon="6.08827">
        <ele>368.9</ele>
        <time>2012-04-16T13:14:04Z</time>
      </trkpt>
      <trkpt lat="47.28706" lon="6.08821">
        <ele>366.2</ele>
        <time>2012-04-16T13:14:09Z</time>
      </trkpt>
      <trkpt lat="47.28699" lon="6.08818">
        <ele>367.3</ele>
        <time>2012-04-16T13:14:14Z</time>
      </trkpt>
      <trkpt lat="47.28693" lon="6.08814">
        <ele>367.1</ele>
        <time>2012-04-16T13:14:20Z</time>
      </trkpt>
      <trkpt lat="47.28687" lon="6.08812">
        <ele>368.3</ele>
        <time>2012-04-16T13:14:24Z</time>
      </trkpt>
      <trkpt lat="47.28679" lon="6.08812">
        <ele>367.1</ele>
        <time>2012-04-16T13:14:32Z</time>
      </trkpt>
      <trkpt lat="47.28672" lon="6.08812">
        <ele>371.2</ele>
        <time>2012-04-16T13:14:39Z</time>
      </trkpt>
      <trkpt lat="47.28666" lon="6.08809">
        <ele>370.4</ele>
        <time>2012-04-16T13:14:45Z</time>
      </trkpt>
      <trkpt lat="47.28659" lon="6.08805">
        <ele>370.3</ele>
        <time>2012-04-16T13:14:50Z</time>
      </trkpt>
      <trkpt lat="47.28653" lon="6.088">
        <ele>370.5</ele>
        <time>2012-04-16T13:14:57Z</time>
      </trkpt>
      <trkpt lat="47.28647" lon="6.08799">
        <ele>369.2</ele>
        <time>2012-04-16T13:15:03Z</time>
      </trkpt>
      <trkpt lat="47.2864" lon="6.08799">
        <ele>368.3</ele>
        <time>2012-04-16T13:15:09Z</time>
      </trkpt>
      <trkpt lat="47.28634" lon="6.08799">
        <ele>369</ele>
        <time>2012-04-16T13:15:13Z</time>
      </trkpt>
      <trkpt lat="47.28627" lon="6.08799">
        <ele>368.6</ele>
        <time>2012-04-16T13:15:20Z</time>
      </trkpt>
      <trkpt lat="47.28622" lon="6.08794">
        <ele>365.6</ele>
        <time>2012-04-16T13:15:29Z</time>
      </trkpt>
      <trkpt lat="47.28613" lon="6.08794">
        <ele>366.9</ele>
        <time>2012-04-16T13:15:36Z</time>
      </trkpt>
      <trkpt lat="47.28606" lon="6.08794">
        <ele>366.8</ele>
        <time>2012-04-16T13:15:41Z</time>
      </trkpt>
      <trkpt lat="47.28599" lon="6.08792">
        <ele>365.4</ele>
        <time>2012-04-16T13:15:50Z</time>
      </trkpt>
      <trkpt lat="47.28591" lon="6.08792">
        <ele>365.3</ele>
        <time>2012-04-16T13:15:57Z</time>
      </trkpt>
      <trkpt lat="47.28585" lon="6.08788">
        <ele>365.6</ele>
        <time>2012-04-16T13:16:02Z</time>
      </trkpt>
      <trkpt lat="47.28579" lon="6.08787">
        <ele>365.9</ele>
        <time>2012-04-16T13:16:10Z</time>
      </trkpt>
      <trkpt lat="47.28574" lon="6.08781">
        <ele>365.6</ele>
        <time>2012-04-16T13:16:15Z</time>
      </trkpt>
      <trkpt lat="47.28569" lon="6.08774">
        <ele>365.9</ele>
        <time>2012-04-16T13:16:24Z</time>
      </trkpt>
      <trkpt lat="47.28563" lon="6.0877">
        <ele>366.3</ele>
        <time>2012-04-16T13:16:29Z</time>
      </trkpt>
      <trkpt lat="47.28556" lon="6.08765">
        <ele>366.7</ele>
        <time>2012-04-16T13:16:34Z</time>
      </trkpt>
      <trkpt lat="47.28551" lon="6.08758">
        <ele>366.5</ele>
        <time>2012-04-16T13:16:40Z</time>
      </trkpt>
      <trkpt lat="47.28544" lon="6.08755">
        <ele>366.3</ele>
        <time>2012-04-16T13:16:47Z</time>
      </trkpt>
      <trkpt lat="47.28538" lon="6.0875">
        <ele>365.8</ele>
        <time>2012-04-16T13:16:53Z</time>
      </trkpt>
      <trkpt lat="47.28531" lon="6.08746">
        <ele>367.4</ele>
        <time>2012-04-16T13:17:00Z</time>
      </trkpt>
      <trkpt lat="47.28526" lon="6.08739">
        <ele>366.1</ele>
        <time>2012-04-16T13:17:07Z</time>
      </trkpt>
      <trkpt lat="47.28519" lon="6.08738">
        <ele>366</ele>
        <time>2012-04-16T13:17:12Z</time>
      </trkpt>
      <trkpt lat="47.28512" lon="6.08733">
        <ele>365.9</ele>
        <time>2012-04-16T13:17:17Z</time>
      </trkpt>
      <trkpt lat="47.28505" lon="6.08731">
        <ele>367.6</ele>
        <time>2012-04-16T13:17:22Z</time>
      </trkpt>
      <trkpt lat="47.28499" lon="6.08727">
        <ele>367.6</ele>
        <time>2012-04-16T13:17:31Z</time>
      </trkpt>
      <trkpt lat="47.28492" lon="6.08725">
        <ele>367.6</ele>
        <time>2012-04-16T13:17:42Z</time>
      </trkpt>
      <trkpt lat="47.28486" lon="6.0872">
        <ele>367.6</ele>
        <time>2012-04-16T13:17:46Z</time>
      </trkpt>
      <trkpt lat="47.28478" lon="6.08714">
        <ele>367.2</ele>
        <time>2012-04-16T13:17:53Z</time>
      </trkpt>
      <trkpt lat="47.28472" lon="6.08708">
        <ele>366.8</ele>
        <time>2012-04-16T13:17:59Z</time>
      </trkpt>
      <trkpt lat="47.28466" lon="6.08706">
        <ele>366.6</ele>
        <time>2012-04-16T13:18:03Z</time>
      </trkpt>
      <trkpt lat="47.28459" lon="6.08702">
        <ele>366.3</ele>
        <time>2012-04-16T13:18:09Z</time>
      </trkpt>
      <trkpt lat="47.28451" lon="6.08702">
        <ele>366</ele>
        <time>2012-04-16T13:18:16Z</time>
      </trkpt>
      <trkpt lat="47.28451" lon="6.08702">
        <ele>311.5</ele>
        <time>2012-04-16T13:18:28Z</time>
      </trkpt>
      <trkpt lat="47.28451" lon="6.08702">
        <ele>311.5</ele>
        <time>2012-04-16T13:18:29Z</time>
      </trkpt>
      <trkpt lat="47.28451" lon="6.08702">
        <ele>311.5</ele>
        <time>2012-04-16T13:18:40Z</time>
      </trkpt>
      <trkpt lat="47.28451" lon="6.08702">
        <ele>311.5</ele>
        <time>2012-04-16T13:19:54Z</time>
      </trkpt>
      <trkpt lat="47.28445" lon="6.08726">
        <ele>366</ele>
        <time>2012-04-16T13:20:00Z</time>
      </trkpt>
      <trkpt lat="47.2844" lon="6.08733">
        <ele>365.5</ele>
        <time>2012-04-16T13:20:04Z</time>
      </trkpt>
      <trkpt lat="47.28436" lon="6.08741">
        <ele>365.8</ele>
        <time>2012-04-16T13:20:09Z</time>
      </trkpt>
      <trkpt lat="47.28434" lon="6.08754">
        <ele>366.3</ele>
        <time>2012-04-16T13:20:15Z</time>
      </trkpt>
      <trkpt lat="47.28432" lon="6.08764">
        <ele>366.9</ele>
        <time>2012-04-16T13:20:27Z</time>
      </trkpt>
      <trkpt lat="47.28433" lon="6.08774">
        <ele>366.7</ele>
        <time>2012-04-16T13:20:33Z</time>
      </trkpt>
      <trkpt lat="47.28433" lon="6.08774">
        <ele>314.9</ele>
        <time>2012-04-16T13:20:44Z</time>
      </trkpt>
      <trkpt lat="47.28433" lon="6.08774">
        <ele>314.9</ele>
        <time>2012-04-16T13:21:04Z</time>
      </trkpt>
      <trkpt lat="47.28429" lon="6.08794">
        <ele>365.6</ele>
        <time>2012-04-16T13:21:09Z</time>
      </trkpt>
      <trkpt lat="47.28429" lon="6.08794">
        <ele>315.8</ele>
        <time>2012-04-16T13:21:22Z</time>
      </trkpt>
      <trkpt lat="47.28429" lon="6.08794">
        <ele>315.8</ele>
        <time>2012-04-16T13:21:24Z</time>
      </trkpt>
      <trkpt lat="47.28427" lon="6.08814">
        <ele>364.9</ele>
        <time>2012-04-16T13:21:28Z</time>
      </trkpt>
      <trkpt lat="47.28426" lon="6.08825">
        <ele>361</ele>
        <time>2012-04-16T13:21:37Z</time>
      </trkpt>
      <trkpt lat="47.28426" lon="6.08839">
        <ele>359</ele>
        <time>2012-04-16T13:21:47Z</time>
      </trkpt>
      <trkpt lat="47.28422" lon="6.0885">
        <ele>358.8</ele>
        <time>2012-04-16T13:21:49Z</time>
      </trkpt>
      <trkpt lat="47.28425" lon="6.08859">
        <ele>357.9</ele>
        <time>2012-04-16T13:21:53Z</time>
      </trkpt>
      <trkpt lat="47.28422" lon="6.08872">
        <ele>358.3</ele>
        <time>2012-04-16T13:21:57Z</time>
      </trkpt>
      <trkpt lat="47.2842" lon="6.08881">
        <ele>358.4</ele>
        <time>2012-04-16T13:22:02Z</time>
      </trkpt>
      <trkpt lat="47.28417" lon="6.08891">
        <ele>360.3</ele>
        <time>2012-04-16T13:22:08Z</time>
      </trkpt>
      <trkpt lat="47.28419" lon="6.08901">
        <ele>362.2</ele>
        <time>2012-04-16T13:22:17Z</time>
      </trkpt>
      <trkpt lat="47.28419" lon="6.08901">
        <ele>320</ele>
        <time>2012-04-16T13:22:28Z</time>
      </trkpt>
      <trkpt lat="47.28419" lon="6.08901">
        <ele>320</ele>
        <time>2012-04-16T13:22:39Z</time>
      </trkpt>
      <trkpt lat="47.28412" lon="6.0892">
        <ele>361.8</ele>
        <time>2012-04-16T13:22:43Z</time>
      </trkpt>
      <trkpt lat="47.28412" lon="6.08931">
        <ele>362.2</ele>
        <time>2012-04-16T13:22:47Z</time>
      </trkpt>
      <trkpt lat="47.28416" lon="6.08954">
        <ele>363.2</ele>
        <time>2012-04-16T13:22:53Z</time>
      </trkpt>
      <trkpt lat="47.28414" lon="6.08964">
        <ele>363.2</ele>
        <time>2012-04-16T13:22:58Z</time>
      </trkpt>
      <trkpt lat="47.28412" lon="6.08974">
        <ele>362.8</ele>
        <time>2012-04-16T13:23:01Z</time>
      </trkpt>
      <trkpt lat="47.28411" lon="6.08984">
        <ele>363.1</ele>
        <time>2012-04-16T13:23:04Z</time>
      </trkpt>
      <trkpt lat="47.28415" lon="6.08994">
        <ele>363</ele>
        <time>2012-04-16T13:23:10Z</time>
      </trkpt>
      <trkpt lat="47.28415" lon="6.09004">
        <ele>361.6</ele>
        <time>2012-04-16T13:23:16Z</time>
      </trkpt>
      <trkpt lat="47.28415" lon="6.09015">
        <ele>361.7</ele>
        <time>2012-04-16T13:23:19Z</time>
      </trkpt>
      <trkpt lat="47.28413" lon="6.09024">
        <ele>362.3</ele>
        <time>2012-04-16T13:23:28Z</time>
      </trkpt>
      <trkpt lat="47.28412" lon="6.09036">
        <ele>360.6</ele>
        <time>2012-04-16T13:23:32Z</time>
      </trkpt>
      <trkpt lat="47.28418" lon="6.09045">
        <ele>360.7</ele>
        <time>2012-04-16T13:23:37Z</time>
      </trkpt>
      <trkpt lat="47.28425" lon="6.09049">
        <ele>360.3</ele>
        <time>2012-04-16T13:23:43Z</time>
      </trkpt>
      <trkpt lat="47.28422" lon="6.0906">
        <ele>362.1</ele>
        <time>2012-04-16T13:23:49Z</time>
      </trkpt>
      <trkpt lat="47.28418" lon="6.09068">
        <ele>363.4</ele>
        <time>2012-04-16T13:23:52Z</time>
      </trkpt>
      <trkpt lat="47.28415" lon="6.09078">
        <ele>362.5</ele>
        <time>2012-04-16T13:23:57Z</time>
      </trkpt>
      <trkpt lat="47.28412" lon="6.09088">
        <ele>363.4</ele>
        <time>2012-04-16T13:24:02Z</time>
      </trkpt>
      <trkpt lat="47.28411" lon="6.091">
        <ele>365.4</ele>
        <time>2012-04-16T13:24:10Z</time>
      </trkpt>
      <trkpt lat="47.2841" lon="6.09111">
        <ele>366.7</ele>
        <time>2012-04-16T13:24:17Z</time>
      </trkpt>
      <trkpt lat="47.28408" lon="6.09121">
        <ele>367.2</ele>
        <time>2012-04-16T13:24:25Z</time>
      </trkpt>
      <trkpt lat="47.28409" lon="6.0913">
        <ele>366.4</ele>
        <time>2012-04-16T13:24:31Z</time>
      </trkpt>
      <trkpt lat="47.28407" lon="6.09141">
        <ele>367.5</ele>
        <time>2012-04-16T13:24:39Z</time>
      </trkpt>
      <trkpt lat="47.28408" lon="6.09152">
        <ele>366.5</ele>
        <time>2012-04-16T13:24:44Z</time>
      </trkpt>
      <trkpt lat="47.28403" lon="6.0916">
        <ele>366.2</ele>
        <time>2012-04-16T13:24:52Z</time>
      </trkpt>
      <trkpt lat="47.28407" lon="6.09168">
        <ele>367</ele>
        <time>2012-04-16T13:25:03Z</time>
      </trkpt>
      <trkpt lat="47.28407" lon="6.09168">
        <ele>322</ele>
        <time>2012-04-16T13:25:14Z</time>
      </trkpt>
      <trkpt lat="47.28407" lon="6.09168">
        <ele>322</ele>
        <time>2012-04-16T13:25:23Z</time>
      </trkpt>
      <trkpt lat="47.28408" lon="6.09191">
        <ele>367.6</ele>
        <time>2012-04-16T13:25:24Z</time>
      </trkpt>
      <trkpt lat="47.28406" lon="6.09204">
        <ele>367.8</ele>
        <time>2012-04-16T13:25:28Z</time>
      </trkpt>
      <trkpt lat="47.28407" lon="6.09214">
        <ele>367.6</ele>
        <time>2012-04-16T13:25:30Z</time>
      </trkpt>
      <trkpt lat="47.28407" lon="6.09225">
        <ele>367.7</ele>
        <time>2012-04-16T13:25:35Z</time>
      </trkpt>
      <trkpt lat="47.28413" lon="6.09236">
        <ele>367.9</ele>
        <time>2012-04-16T13:25:39Z</time>
      </trkpt>
      <trkpt lat="47.28413" lon="6.09236">
        <ele>322.9</ele>
        <time>2012-04-16T13:25:50Z</time>
      </trkpt>
      <trkpt lat="47.28413" lon="6.09236">
        <ele>322.9</ele>
        <time>2012-04-16T13:25:51Z</time>
      </trkpt>
      <trkpt lat="47.28413" lon="6.09236">
        <ele>322.9</ele>
        <time>2012-04-16T13:26:03Z</time>
      </trkpt>
      <trkpt lat="47.28413" lon="6.09236">
        <ele>322.9</ele>
        <time>2012-04-16T13:26:06Z</time>
      </trkpt>
      <trkpt lat="47.28405" lon="6.0927">
        <ele>368.3</ele>
        <time>2012-04-16T13:26:08Z</time>
      </trkpt>
      <trkpt lat="47.28401" lon="6.0928">
        <ele>368.9</ele>
        <time>2012-04-16T13:26:11Z</time>
      </trkpt>
      <trkpt lat="47.28399" lon="6.09292">
        <ele>371</ele>
        <time>2012-04-16T13:26:17Z</time>
      </trkpt>
      <trkpt lat="47.28399" lon="6.09301">
        <ele>372.4</ele>
        <time>2012-04-16T13:26:20Z</time>
      </trkpt>
      <trkpt lat="47.28399" lon="6.09312">
        <ele>372.4</ele>
        <time>2012-04-16T13:26:24Z</time>
      </trkpt>
      <trkpt lat="47.28398" lon="6.09326">
        <ele>371.7</ele>
        <time>2012-04-16T13:26:31Z</time>
      </trkpt>
      <trkpt lat="47.28393" lon="6.09337">
        <ele>372.3</ele>
        <time>2012-04-16T13:26:35Z</time>
      </trkpt>
      <trkpt lat="47.28393" lon="6.09346">
        <ele>372.1</ele>
        <time>2012-04-16T13:26:38Z</time>
      </trkpt>
      <trkpt lat="47.28392" lon="6.09356">
        <ele>370.9</ele>
        <time>2012-04-16T13:26:44Z</time>
      </trkpt>
      <trkpt lat="47.28395" lon="6.09365">
        <ele>370</ele>
        <time>2012-04-16T13:26:48Z</time>
      </trkpt>
      <trkpt lat="47.28398" lon="6.09376">
        <ele>368.6</ele>
        <time>2012-04-16T13:26:59Z</time>
      </trkpt>
      <trkpt lat="47.28397" lon="6.09385">
        <ele>372.2</ele>
        <time>2012-04-16T13:27:01Z</time>
      </trkpt>
      <trkpt lat="47.28397" lon="6.09396">
        <ele>374</ele>
        <time>2012-04-16T13:27:06Z</time>
      </trkpt>
      <trkpt lat="47.28394" lon="6.09409">
        <ele>375.9</ele>
        <time>2012-04-16T13:27:11Z</time>
      </trkpt>
      <trkpt lat="47.28389" lon="6.09418">
        <ele>376</ele>
        <time>2012-04-16T13:27:17Z</time>
      </trkpt>
      <trkpt lat="47.28391" lon="6.09429">
        <ele>375.1</ele>
        <time>2012-04-16T13:27:25Z</time>
      </trkpt>
      <trkpt lat="47.28391" lon="6.09429">
        <ele>324.2</ele>
        <time>2012-04-16T13:27:37Z</time>
      </trkpt>
      <trkpt lat="47.28391" lon="6.09429">
        <ele>324.2</ele>
        <time>2012-04-16T13:27:42Z</time>
      </trkpt>
      <trkpt lat="47.28391" lon="6.09429">
        <ele>324.2</ele>
        <time>2012-04-16T13:27:53Z</time>
      </trkpt>
      <trkpt lat="47.28391" lon="6.09429">
        <ele>324.2</ele>
        <time>2012-04-16T13:27:58Z</time>
      </trkpt>
      <trkpt lat="47.28386" lon="6.0947">
        <ele>381.7</ele>
        <time>2012-04-16T13:28:00Z</time>
      </trkpt>
      <trkpt lat="47.28392" lon="6.09483">
        <ele>382.7</ele>
        <time>2012-04-16T13:28:03Z</time>
      </trkpt>
      <trkpt lat="47.28394" lon="6.09494">
        <ele>383.5</ele>
        <time>2012-04-16T13:28:08Z</time>
      </trkpt>
      <trkpt lat="47.28395" lon="6.09504">
        <ele>383.1</ele>
        <time>2012-04-16T13:28:12Z</time>
      </trkpt>
      <trkpt lat="47.28395" lon="6.09514">
        <ele>382.2</ele>
        <time>2012-04-16T13:28:20Z</time>
      </trkpt>
      <trkpt lat="47.28399" lon="6.09523">
        <ele>382.6</ele>
        <time>2012-04-16T13:28:26Z</time>
      </trkpt>
      <trkpt lat="47.28403" lon="6.09534">
        <ele>381.7</ele>
        <time>2012-04-16T13:28:31Z</time>
      </trkpt>
      <trkpt lat="47.28406" lon="6.09544">
        <ele>380.2</ele>
        <time>2012-04-16T13:28:35Z</time>
      </trkpt>
      <trkpt lat="47.28408" lon="6.09553">
        <ele>380.3</ele>
        <time>2012-04-16T13:28:41Z</time>
      </trkpt>
      <trkpt lat="47.28411" lon="6.09561">
        <ele>378.8</ele>
        <time>2012-04-16T13:28:49Z</time>
      </trkpt>
      <trkpt lat="47.28412" lon="6.09571">
        <ele>377.6</ele>
        <time>2012-04-16T13:28:53Z</time>
      </trkpt>
      <trkpt lat="47.28412" lon="6.0958">
        <ele>377.2</ele>
        <time>2012-04-16T13:29:00Z</time>
      </trkpt>
      <trkpt lat="47.28413" lon="6.0959">
        <ele>377</ele>
        <time>2012-04-16T13:29:05Z</time>
      </trkpt>
      <trkpt lat="47.28413" lon="6.0959">
        <ele>329.4</ele>
        <time>2012-04-16T13:29:16Z</time>
      </trkpt>
      <trkpt lat="47.28413" lon="6.0959">
        <ele>329.4</ele>
        <time>2012-04-16T13:29:46Z</time>
      </trkpt>
      <trkpt lat="47.28418" lon="6.0961">
        <ele>376.4</ele>
        <time>2012-04-16T13:29:49Z</time>
      </trkpt>
      <trkpt lat="47.28416" lon="6.0962">
        <ele>376.8</ele>
        <time>2012-04-16T13:29:52Z</time>
      </trkpt>
      <trkpt lat="47.2842" lon="6.09628">
        <ele>379.2</ele>
        <time>2012-04-16T13:29:54Z</time>
      </trkpt>
      <trkpt lat="47.28422" lon="6.0964">
        <ele>379.3</ele>
        <time>2012-04-16T13:30:00Z</time>
      </trkpt>
      <trkpt lat="47.28422" lon="6.0965">
        <ele>379.9</ele>
        <time>2012-04-16T13:30:05Z</time>
      </trkpt>
      <trkpt lat="47.28423" lon="6.0966">
        <ele>379.4</ele>
        <time>2012-04-16T13:30:10Z</time>
      </trkpt>
      <trkpt lat="47.28423" lon="6.09672">
        <ele>379</ele>
        <time>2012-04-16T13:30:17Z</time>
      </trkpt>
      <trkpt lat="47.28426" lon="6.09681">
        <ele>379.1</ele>
        <time>2012-04-16T13:30:23Z</time>
      </trkpt>
      <trkpt lat="47.28424" lon="6.0969">
        <ele>379.8</ele>
        <time>2012-04-16T13:30:27Z</time>
      </trkpt>
      <trkpt lat="47.28421" lon="6.09703">
        <ele>380.6</ele>
        <time>2012-04-16T13:30:32Z</time>
      </trkpt>
      <trkpt lat="47.2842" lon="6.09714">
        <ele>382.1</ele>
        <time>2012-04-16T13:30:36Z</time>
      </trkpt>
      <trkpt lat="47.28419" lon="6.09724">
        <ele>382.3</ele>
        <time>2012-04-16T13:30:41Z</time>
      </trkpt>
      <trkpt lat="47.28416" lon="6.09732">
        <ele>382</ele>
        <time>2012-04-16T13:30:47Z</time>
      </trkpt>
      <trkpt lat="47.28416" lon="6.09742">
        <ele>381.2</ele>
        <time>2012-04-16T13:30:51Z</time>
      </trkpt>
      <trkpt lat="47.28415" lon="6.09752">
        <ele>380.9</ele>
        <time>2012-04-16T13:30:58Z</time>
      </trkpt>
      <trkpt lat="47.28412" lon="6.09761">
        <ele>381.4</ele>
        <time>2012-04-16T13:31:07Z</time>
      </trkpt>
      <trkpt lat="47.28412" lon="6.09771">
        <ele>381.7</ele>
        <time>2012-04-16T13:31:14Z</time>
      </trkpt>
      <trkpt lat="47.2841" lon="6.09781">
        <ele>382.4</ele>
        <time>2012-04-16T13:31:19Z</time>
      </trkpt>
      <trkpt lat="47.28406" lon="6.09791">
        <ele>381.1</ele>
        <time>2012-04-16T13:31:24Z</time>
      </trkpt>
      <trkpt lat="47.28405" lon="6.09802">
        <ele>382.3</ele>
        <time>2012-04-16T13:31:28Z</time>
      </trkpt>
      <trkpt lat="47.284" lon="6.0981">
        <ele>382.8</ele>
        <time>2012-04-16T13:31:34Z</time>
      </trkpt>
      <trkpt lat="47.28396" lon="6.09818">
        <ele>382</ele>
        <time>2012-04-16T13:31:38Z</time>
      </trkpt>
      <trkpt lat="47.2839" lon="6.09821">
        <ele>381.6</ele>
        <time>2012-04-16T13:31:44Z</time>
      </trkpt>
      <trkpt lat="47.28385" lon="6.09829">
        <ele>383.2</ele>
        <time>2012-04-16T13:31:51Z</time>
      </trkpt>
      <trkpt lat="47.28378" lon="6.09831">
        <ele>382</ele>
        <time>2012-04-16T13:31:56Z</time>
      </trkpt>
      <trkpt lat="47.28372" lon="6.09835">
        <ele>383</ele>
        <time>2012-04-16T13:32:02Z</time>
      </trkpt>
      <trkpt lat="47.28365" lon="6.09838">
        <ele>383.2</ele>
        <time>2012-04-16T13:32:07Z</time>
      </trkpt>
      <trkpt lat="47.28359" lon="6.09842">
        <ele>383.3</ele>
        <time>2012-04-16T13:32:11Z</time>
      </trkpt>
      <trkpt lat="47.28353" lon="6.09847">
        <ele>383.5</ele>
        <time>2012-04-16T13:32:18Z</time>
      </trkpt>
      <trkpt lat="47.28346" lon="6.09851">
        <ele>385.3</ele>
        <time>2012-04-16T13:32:22Z</time>
      </trkpt>
      <trkpt lat="47.28339" lon="6.09857">
        <ele>383.7</ele>
        <time>2012-04-16T13:32:27Z</time>
      </trkpt>
      <trkpt lat="47.28333" lon="6.09863">
        <ele>382.8</ele>
        <time>2012-04-16T13:32:33Z</time>
      </trkpt>
      <trkpt lat="47.28326" lon="6.09864">
        <ele>382</ele>
        <time>2012-04-16T13:32:38Z</time>
      </trkpt>
      <trkpt lat="47.28321" lon="6.09868">
        <ele>381.4</ele>
        <time>2012-04-16T13:32:42Z</time>
      </trkpt>
      <trkpt lat="47.28314" lon="6.0987">
        <ele>381.5</ele>
        <time>2012-04-16T13:32:48Z</time>
      </trkpt>
      <trkpt lat="47.28308" lon="6.09875">
        <ele>381.2</ele>
        <time>2012-04-16T13:32:55Z</time>
      </trkpt>
      <trkpt lat="47.28301" lon="6.09874">
        <ele>381.2</ele>
        <time>2012-04-16T13:33:03Z</time>
      </trkpt>
      <trkpt lat="47.28295" lon="6.09879">
        <ele>380.2</ele>
        <time>2012-04-16T13:33:10Z</time>
      </trkpt>
      <trkpt lat="47.28289" lon="6.09884">
        <ele>380</ele>
        <time>2012-04-16T13:33:16Z</time>
      </trkpt>
      <trkpt lat="47.28283" lon="6.09888">
        <ele>378.9</ele>
        <time>2012-04-16T13:33:18Z</time>
      </trkpt>
      <trkpt lat="47.28278" lon="6.09896">
        <ele>377.7</ele>
        <time>2012-04-16T13:33:24Z</time>
      </trkpt>
      <trkpt lat="47.28271" lon="6.09897">
        <ele>376.8</ele>
        <time>2012-04-16T13:33:30Z</time>
      </trkpt>
      <trkpt lat="47.28263" lon="6.099">
        <ele>376.6</ele>
        <time>2012-04-16T13:33:34Z</time>
      </trkpt>
      <trkpt lat="47.28257" lon="6.09904">
        <ele>376.4</ele>
        <time>2012-04-16T13:33:40Z</time>
      </trkpt>
      <trkpt lat="47.28249" lon="6.09903">
        <ele>376.3</ele>
        <time>2012-04-16T13:33:49Z</time>
      </trkpt>
      <trkpt lat="47.28245" lon="6.09912">
        <ele>376.5</ele>
        <time>2012-04-16T13:33:53Z</time>
      </trkpt>
      <trkpt lat="47.28239" lon="6.09915">
        <ele>377.6</ele>
        <time>2012-04-16T13:33:58Z</time>
      </trkpt>
      <trkpt lat="47.28232" lon="6.09915">
        <ele>378.2</ele>
        <time>2012-04-16T13:34:08Z</time>
      </trkpt>
      <trkpt lat="47.28232" lon="6.09915">
        <ele>319.8</ele>
        <time>2012-04-16T13:34:20Z</time>
      </trkpt>
      <trkpt lat="47.28232" lon="6.09915">
        <ele>319.8</ele>
        <time>2012-04-16T13:34:33Z</time>
      </trkpt>
      <trkpt lat="47.28218" lon="6.0993">
        <ele>379.1</ele>
        <time>2012-04-16T13:34:35Z</time>
      </trkpt>
      <trkpt lat="47.28211" lon="6.09936">
        <ele>379.4</ele>
        <time>2012-04-16T13:34:38Z</time>
      </trkpt>
      <trkpt lat="47.28205" lon="6.09943">
        <ele>379.2</ele>
        <time>2012-04-16T13:34:41Z</time>
      </trkpt>
      <trkpt lat="47.28197" lon="6.09947">
        <ele>379.7</ele>
        <time>2012-04-16T13:34:47Z</time>
      </trkpt>
      <trkpt lat="47.2819" lon="6.0995">
        <ele>380.7</ele>
        <time>2012-04-16T13:34:50Z</time>
      </trkpt>
      <trkpt lat="47.28187" lon="6.0996">
        <ele>380.5</ele>
        <time>2012-04-16T13:34:53Z</time>
      </trkpt>
      <trkpt lat="47.28182" lon="6.09967">
        <ele>380.3</ele>
        <time>2012-04-16T13:34:57Z</time>
      </trkpt>
      <trkpt lat="47.28176" lon="6.09976">
        <ele>379.6</ele>
        <time>2012-04-16T13:35:02Z</time>
      </trkpt>
      <trkpt lat="47.28171" lon="6.09981">
        <ele>379.1</ele>
        <time>2012-04-16T13:35:07Z</time>
      </trkpt>
      <trkpt lat="47.28171" lon="6.09981">
        <ele>314.8</ele>
        <time>2012-04-16T13:35:18Z</time>
      </trkpt>
      <trkpt lat="47.28171" lon="6.09981">
        <ele>314.8</ele>
        <time>2012-04-16T13:35:27Z</time>
      </trkpt>
      <trkpt lat="47.28171" lon="6.09981">
        <ele>314.8</ele>
        <time>2012-04-16T13:35:38Z</time>
      </trkpt>
      <trkpt lat="47.28171" lon="6.09981">
        <ele>314.8</ele>
        <time>2012-04-16T13:35:41Z</time>
      </trkpt>
      <trkpt lat="47.28178" lon="6.09995">
        <ele>376</ele>
        <time>2012-04-16T13:35:46Z</time>
      </trkpt>
      <trkpt lat="47.28169" lon="6.1">
        <ele>375.7</ele>
        <time>2012-04-16T13:35:53Z</time>
      </trkpt>
      <trkpt lat="47.28166" lon="6.10008">
        <ele>375.1</ele>
        <time>2012-04-16T13:35:59Z</time>
      </trkpt>
      <trkpt lat="47.2816" lon="6.10015">
        <ele>375.1</ele>
        <time>2012-04-16T13:36:03Z</time>
      </trkpt>
      <trkpt lat="47.28156" lon="6.10024">
        <ele>375</ele>
        <time>2012-04-16T13:36:10Z</time>
      </trkpt>
      <trkpt lat="47.2815" lon="6.1003">
        <ele>375.2</ele>
        <time>2012-04-16T13:36:16Z</time>
      </trkpt>
      <trkpt lat="47.28144" lon="6.10043">
        <ele>374.8</ele>
        <time>2012-04-16T13:36:25Z</time>
      </trkpt>
      <trkpt lat="47.28139" lon="6.1005">
        <ele>375.8</ele>
        <time>2012-04-16T13:36:29Z</time>
      </trkpt>
      <trkpt lat="47.28133" lon="6.10058">
        <ele>375.3</ele>
        <time>2012-04-16T13:36:32Z</time>
      </trkpt>
      <trkpt lat="47.28127" lon="6.10065">
        <ele>375.5</ele>
        <time>2012-04-16T13:36:43Z</time>
      </trkpt>
      <trkpt lat="47.28122" lon="6.1007">
        <ele>376.2</ele>
        <time>2012-04-16T13:36:49Z</time>
      </trkpt>
      <trkpt lat="47.28117" lon="6.10078">
        <ele>375.9</ele>
        <time>2012-04-16T13:36:54Z</time>
      </trkpt>
      <trkpt lat="47.28116" lon="6.10089">
        <ele>376.1</ele>
        <time>2012-04-16T13:37:01Z</time>
      </trkpt>
      <trkpt lat="47.28114" lon="6.10098">
        <ele>376.7</ele>
        <time>2012-04-16T13:37:08Z</time>
      </trkpt>
      <trkpt lat="47.28111" lon="6.10106">
        <ele>378.6</ele>
        <time>2012-04-16T13:37:13Z</time>
      </trkpt>
      <trkpt lat="47.28106" lon="6.10115">
        <ele>379.3</ele>
        <time>2012-04-16T13:37:15Z</time>
      </trkpt>
      <trkpt lat="47.28101" lon="6.10123">
        <ele>378.3</ele>
        <time>2012-04-16T13:37:19Z</time>
      </trkpt>
      <trkpt lat="47.28097" lon="6.1013">
        <ele>378</ele>
        <time>2012-04-16T13:37:22Z</time>
      </trkpt>
      <trkpt lat="47.28093" lon="6.10138">
        <ele>378.2</ele>
        <time>2012-04-16T13:37:28Z</time>
      </trkpt>
      <trkpt lat="47.2809" lon="6.10146">
        <ele>379.9</ele>
        <time>2012-04-16T13:37:33Z</time>
      </trkpt>
      <trkpt lat="47.28092" lon="6.10158">
        <ele>378.6</ele>
        <time>2012-04-16T13:37:40Z</time>
      </trkpt>
      <trkpt lat="47.28087" lon="6.10165">
        <ele>380</ele>
        <time>2012-04-16T13:37:48Z</time>
      </trkpt>
      <trkpt lat="47.28083" lon="6.10173">
        <ele>381.2</ele>
        <time>2012-04-16T13:37:53Z</time>
      </trkpt>
      <trkpt lat="47.2808" lon="6.10183">
        <ele>381.3</ele>
        <time>2012-04-16T13:37:56Z</time>
      </trkpt>
      <trkpt lat="47.2808" lon="6.10193">
        <ele>381.3</ele>
        <time>2012-04-16T13:38:00Z</time>
      </trkpt>
      <trkpt lat="47.28077" lon="6.10201">
        <ele>381.9</ele>
        <time>2012-04-16T13:38:08Z</time>
      </trkpt>
      <trkpt lat="47.28072" lon="6.10209">
        <ele>381.2</ele>
        <time>2012-04-16T13:38:16Z</time>
      </trkpt>
      <trkpt lat="47.28069" lon="6.10219">
        <ele>380.7</ele>
        <time>2012-04-16T13:38:23Z</time>
      </trkpt>
      <trkpt lat="47.28066" lon="6.10227">
        <ele>380.9</ele>
        <time>2012-04-16T13:38:26Z</time>
      </trkpt>
      <trkpt lat="47.28065" lon="6.10238">
        <ele>379</ele>
        <time>2012-04-16T13:38:32Z</time>
      </trkpt>
      <trkpt lat="47.28061" lon="6.10247">
        <ele>375.7</ele>
        <time>2012-04-16T13:38:37Z</time>
      </trkpt>
      <trkpt lat="47.28062" lon="6.10258">
        <ele>376.4</ele>
        <time>2012-04-16T13:38:41Z</time>
      </trkpt>
      <trkpt lat="47.28061" lon="6.10267">
        <ele>377.7</ele>
        <time>2012-04-16T13:38:44Z</time>
      </trkpt>
      <trkpt lat="47.28057" lon="6.10275">
        <ele>376.9</ele>
        <time>2012-04-16T13:38:48Z</time>
      </trkpt>
      <trkpt lat="47.28053" lon="6.10282">
        <ele>376.1</ele>
        <time>2012-04-16T13:38:52Z</time>
      </trkpt>
      <trkpt lat="47.28046" lon="6.10286">
        <ele>377.3</ele>
        <time>2012-04-16T13:38:55Z</time>
      </trkpt>
      <trkpt lat="47.28044" lon="6.10297">
        <ele>377.3</ele>
        <time>2012-04-16T13:39:01Z</time>
      </trkpt>
      <trkpt lat="47.28044" lon="6.10307">
        <ele>375.6</ele>
        <time>2012-04-16T13:39:04Z</time>
      </trkpt>
      <trkpt lat="47.28043" lon="6.10316">
        <ele>374.2</ele>
        <time>2012-04-16T13:39:07Z</time>
      </trkpt>
      <trkpt lat="47.28043" lon="6.10316">
        <ele>296.8</ele>
        <time>2012-04-16T13:39:19Z</time>
      </trkpt>
      <trkpt lat="47.28043" lon="6.10316">
        <ele>296.8</ele>
        <time>2012-04-16T13:39:37Z</time>
      </trkpt>
      <trkpt lat="47.28033" lon="6.10331">
        <ele>372.4</ele>
        <time>2012-04-16T13:39:38Z</time>
      </trkpt>
      <trkpt lat="47.28029" lon="6.10341">
        <ele>371.4</ele>
        <time>2012-04-16T13:39:41Z</time>
      </trkpt>
      <trkpt lat="47.28022" lon="6.10348">
        <ele>371.9</ele>
        <time>2012-04-16T13:39:43Z</time>
      </trkpt>
      <trkpt lat="47.28019" lon="6.10358">
        <ele>373.3</ele>
        <time>2012-04-16T13:39:46Z</time>
      </trkpt>
      <trkpt lat="47.28016" lon="6.10368">
        <ele>374.1</ele>
        <time>2012-04-16T13:39:51Z</time>
      </trkpt>
      <trkpt lat="47.28012" lon="6.10377">
        <ele>370.5</ele>
        <time>2012-04-16T13:39:56Z</time>
      </trkpt>
      <trkpt lat="47.28008" lon="6.10386">
        <ele>371.6</ele>
        <time>2012-04-16T13:40:02Z</time>
      </trkpt>
      <trkpt lat="47.28004" lon="6.10394">
        <ele>372.4</ele>
        <time>2012-04-16T13:40:07Z</time>
      </trkpt>
      <trkpt lat="47.28004" lon="6.10394">
        <ele>292.7</ele>
        <time>2012-04-16T13:40:19Z</time>
      </trkpt>
      <trkpt lat="47.28004" lon="6.10394">
        <ele>292.7</ele>
        <time>2012-04-16T13:40:22Z</time>
      </trkpt>
      <trkpt lat="47.27991" lon="6.10388">
        <ele>366.4</ele>
        <time>2012-04-16T13:40:26Z</time>
      </trkpt>
      <trkpt lat="47.27984" lon="6.10386">
        <ele>366</ele>
        <time>2012-04-16T13:40:31Z</time>
      </trkpt>
      <trkpt lat="47.27978" lon="6.10384">
        <ele>363.8</ele>
        <time>2012-04-16T13:40:35Z</time>
      </trkpt>
      <trkpt lat="47.27971" lon="6.10384">
        <ele>362.9</ele>
        <time>2012-04-16T13:40:40Z</time>
      </trkpt>
      <trkpt lat="47.27964" lon="6.10385">
        <ele>361.8</ele>
        <time>2012-04-16T13:40:46Z</time>
      </trkpt>
      <trkpt lat="47.27958" lon="6.1038">
        <ele>361.8</ele>
        <time>2012-04-16T13:40:51Z</time>
      </trkpt>
      <trkpt lat="47.27951" lon="6.10381">
        <ele>361.6</ele>
        <time>2012-04-16T13:40:54Z</time>
      </trkpt>
      <trkpt lat="47.27945" lon="6.10384">
        <ele>358.5</ele>
        <time>2012-04-16T13:40:59Z</time>
      </trkpt>
      <trkpt lat="47.27937" lon="6.10386">
        <ele>356.3</ele>
        <time>2012-04-16T13:41:04Z</time>
      </trkpt>
      <trkpt lat="47.27938" lon="6.10376">
        <ele>353.7</ele>
        <time>2012-04-16T13:41:07Z</time>
      </trkpt>
      <trkpt lat="47.27938" lon="6.10376">
        <ele>291.6</ele>
        <time>2012-04-16T13:41:19Z</time>
      </trkpt>
      <trkpt lat="47.27938" lon="6.10376">
        <ele>291.6</ele>
        <time>2012-04-16T13:41:37Z</time>
      </trkpt>
      <trkpt lat="47.27922" lon="6.10366">
        <ele>350.8</ele>
        <time>2012-04-16T13:41:38Z</time>
      </trkpt>
      <trkpt lat="47.27914" lon="6.10364">
        <ele>350.6</ele>
        <time>2012-04-16T13:41:41Z</time>
      </trkpt>
      <trkpt lat="47.27907" lon="6.10364">
        <ele>349.1</ele>
        <time>2012-04-16T13:41:45Z</time>
      </trkpt>
      <trkpt lat="47.27907" lon="6.10364">
        <ele>289.5</ele>
        <time>2012-04-16T13:41:56Z</time>
      </trkpt>
      <trkpt lat="47.27907" lon="6.10364">
        <ele>289.5</ele>
        <time>2012-04-16T13:42:16Z</time>
      </trkpt>
      <trkpt lat="47.27892" lon="6.10364">
        <ele>348.4</ele>
        <time>2012-04-16T13:42:18Z</time>
      </trkpt>
      <trkpt lat="47.27886" lon="6.10363">
        <ele>345.8</ele>
        <time>2012-04-16T13:42:24Z</time>
      </trkpt>
      <trkpt lat="47.27886" lon="6.10363">
        <ele>287.8</ele>
        <time>2012-04-16T13:42:35Z</time>
      </trkpt>
      <trkpt lat="47.27886" lon="6.10363">
        <ele>287.8</ele>
        <time>2012-04-16T13:42:49Z</time>
      </trkpt>
      <trkpt lat="47.27868" lon="6.10373">
        <ele>347.1</ele>
        <time>2012-04-16T13:42:50Z</time>
      </trkpt>
      <trkpt lat="47.27861" lon="6.10376">
        <ele>346.9</ele>
        <time>2012-04-16T13:42:53Z</time>
      </trkpt>
      <trkpt lat="47.27855" lon="6.10381">
        <ele>345.8</ele>
        <time>2012-04-16T13:42:58Z</time>
      </trkpt>
      <trkpt lat="47.27847" lon="6.10385">
        <ele>345.4</ele>
        <time>2012-04-16T13:43:01Z</time>
      </trkpt>
      <trkpt lat="47.2784" lon="6.10386">
        <ele>344.9</ele>
        <time>2012-04-16T13:43:07Z</time>
      </trkpt>
      <trkpt lat="47.27834" lon="6.10385">
        <ele>345.2</ele>
        <time>2012-04-16T13:43:10Z</time>
      </trkpt>
      <trkpt lat="47.27834" lon="6.10385">
        <ele>283.1</ele>
        <time>2012-04-16T13:43:22Z</time>
      </trkpt>
      <trkpt lat="47.27834" lon="6.10385">
        <ele>283.1</ele>
        <time>2012-04-16T13:43:52Z</time>
      </trkpt>
      <trkpt lat="47.27819" lon="6.10396">
        <ele>344.4</ele>
        <time>2012-04-16T13:43:54Z</time>
      </trkpt>
      <trkpt lat="47.27809" lon="6.10398">
        <ele>344.5</ele>
        <time>2012-04-16T13:43:57Z</time>
      </trkpt>
      <trkpt lat="47.278" lon="6.10402">
        <ele>344.6</ele>
        <time>2012-04-16T13:43:59Z</time>
      </trkpt>
      <trkpt lat="47.27793" lon="6.10405">
        <ele>345.3</ele>
        <time>2012-04-16T13:44:02Z</time>
      </trkpt>
      <trkpt lat="47.27787" lon="6.10409">
        <ele>343.9</ele>
        <time>2012-04-16T13:44:07Z</time>
      </trkpt>
      <trkpt lat="47.27779" lon="6.10416">
        <ele>343.6</ele>
        <time>2012-04-16T13:44:09Z</time>
      </trkpt>
      <trkpt lat="47.27779" lon="6.10416">
        <ele>279.1</ele>
        <time>2012-04-16T13:44:21Z</time>
      </trkpt>
      <trkpt lat="47.27779" lon="6.10416">
        <ele>279.1</ele>
        <time>2012-04-16T13:44:45Z</time>
      </trkpt>
      <trkpt lat="47.27761" lon="6.10417">
        <ele>339.4</ele>
        <time>2012-04-16T13:44:48Z</time>
      </trkpt>
      <trkpt lat="47.27755" lon="6.10415">
        <ele>339.7</ele>
        <time>2012-04-16T13:44:50Z</time>
      </trkpt>
      <trkpt lat="47.27746" lon="6.10414">
        <ele>339.9</ele>
        <time>2012-04-16T13:44:53Z</time>
      </trkpt>
      <trkpt lat="47.2774" lon="6.1041">
        <ele>339.2</ele>
        <time>2012-04-16T13:44:56Z</time>
      </trkpt>
      <trkpt lat="47.27733" lon="6.10405">
        <ele>339</ele>
        <time>2012-04-16T13:45:00Z</time>
      </trkpt>
      <trkpt lat="47.27724" lon="6.1041">
        <ele>337.8</ele>
        <time>2012-04-16T13:45:04Z</time>
      </trkpt>
      <trkpt lat="47.27716" lon="6.10409">
        <ele>336.1</ele>
        <time>2012-04-16T13:45:07Z</time>
      </trkpt>
      <trkpt lat="47.27709" lon="6.10412">
        <ele>335.5</ele>
        <time>2012-04-16T13:45:10Z</time>
      </trkpt>
      <trkpt lat="47.27701" lon="6.10413">
        <ele>336.9</ele>
        <time>2012-04-16T13:45:14Z</time>
      </trkpt>
      <trkpt lat="47.27696" lon="6.10418">
        <ele>334.2</ele>
        <time>2012-04-16T13:45:17Z</time>
      </trkpt>
      <trkpt lat="47.27688" lon="6.10414">
        <ele>333.4</ele>
        <time>2012-04-16T13:45:24Z</time>
      </trkpt>
      <trkpt lat="47.27682" lon="6.10407">
        <ele>329.7</ele>
        <time>2012-04-16T13:45:31Z</time>
      </trkpt>
      <trkpt lat="47.27675" lon="6.10407">
        <ele>326.5</ele>
        <time>2012-04-16T13:45:40Z</time>
      </trkpt>
      <trkpt lat="47.27675" lon="6.10407">
        <ele>267.5</ele>
        <time>2012-04-16T13:45:52Z</time>
      </trkpt>
      <trkpt lat="47.27675" lon="6.10407">
        <ele>267.5</ele>
        <time>2012-04-16T13:45:53Z</time>
      </trkpt>
      <trkpt lat="47.27675" lon="6.10407">
        <ele>267.5</ele>
        <time>2012-04-16T13:46:05Z</time>
      </trkpt>
      <trkpt lat="47.27675" lon="6.10407">
        <ele>267.5</ele>
        <time>2012-04-16T13:53:10Z</time>
      </trkpt>
      <trkpt lat="47.27675" lon="6.10407">
        <ele>267.5</ele>
        <time>2012-04-16T13:53:22Z</time>
      </trkpt>
      <trkpt lat="47.27675" lon="6.10407">
        <ele>267.5</ele>
        <time>2012-04-16T13:53:30Z</time>
      </trkpt>
      <trkpt lat="47.27658" lon="6.10391">
        <ele>319.4</ele>
        <time>2012-04-16T13:53:35Z</time>
      </trkpt>
      <trkpt lat="47.2765" lon="6.10389">
        <ele>319.3</ele>
        <time>2012-04-16T13:53:39Z</time>
      </trkpt>
      <trkpt lat="47.27643" lon="6.10385">
        <ele>317.9</ele>
        <time>2012-04-16T13:53:46Z</time>
      </trkpt>
      <trkpt lat="47.27636" lon="6.10383">
        <ele>317.5</ele>
        <time>2012-04-16T13:53:51Z</time>
      </trkpt>
      <trkpt lat="47.27629" lon="6.10381">
        <ele>317.4</ele>
        <time>2012-04-16T13:53:55Z</time>
      </trkpt>
      <trkpt lat="47.27625" lon="6.10373">
        <ele>315.8</ele>
        <time>2012-04-16T13:54:02Z</time>
      </trkpt>
      <trkpt lat="47.2762" lon="6.10366">
        <ele>313</ele>
        <time>2012-04-16T13:54:08Z</time>
      </trkpt>
      <trkpt lat="47.27613" lon="6.10364">
        <ele>311.5</ele>
        <time>2012-04-16T13:54:13Z</time>
      </trkpt>
      <trkpt lat="47.27613" lon="6.10364">
        <ele>262.2</ele>
        <time>2012-04-16T13:54:25Z</time>
      </trkpt>
      <trkpt lat="47.27613" lon="6.10364">
        <ele>262.2</ele>
        <time>2012-04-16T13:54:40Z</time>
      </trkpt>
      <trkpt lat="47.27595" lon="6.10357">
        <ele>309.4</ele>
        <time>2012-04-16T13:54:42Z</time>
      </trkpt>
      <trkpt lat="47.27588" lon="6.10352">
        <ele>310.2</ele>
        <time>2012-04-16T13:54:46Z</time>
      </trkpt>
      <trkpt lat="47.27582" lon="6.10348">
        <ele>310</ele>
        <time>2012-04-16T13:54:51Z</time>
      </trkpt>
      <trkpt lat="47.27577" lon="6.10342">
        <ele>310.2</ele>
        <time>2012-04-16T13:54:56Z</time>
      </trkpt>
      <trkpt lat="47.27567" lon="6.10344">
        <ele>309.9</ele>
        <time>2012-04-16T13:55:03Z</time>
      </trkpt>
      <trkpt lat="47.27559" lon="6.10343">
        <ele>309</ele>
        <time>2012-04-16T13:55:08Z</time>
      </trkpt>
      <trkpt lat="47.27551" lon="6.10343">
        <ele>309.4</ele>
        <time>2012-04-16T13:55:18Z</time>
      </trkpt>
      <trkpt lat="47.27544" lon="6.10344">
        <ele>308.5</ele>
        <time>2012-04-16T13:55:22Z</time>
      </trkpt>
      <trkpt lat="47.27537" lon="6.10341">
        <ele>307</ele>
        <time>2012-04-16T13:55:28Z</time>
      </trkpt>
      <trkpt lat="47.27531" lon="6.10335">
        <ele>305.8</ele>
        <time>2012-04-16T13:55:35Z</time>
      </trkpt>
      <trkpt lat="47.27531" lon="6.10325">
        <ele>301</ele>
        <time>2012-04-16T13:55:42Z</time>
      </trkpt>
      <trkpt lat="47.27533" lon="6.10316">
        <ele>300.9</ele>
        <time>2012-04-16T13:55:45Z</time>
      </trkpt>
      <trkpt lat="47.27535" lon="6.10305">
        <ele>299.9</ele>
        <time>2012-04-16T13:55:56Z</time>
      </trkpt>
      <trkpt lat="47.27536" lon="6.10295">
        <ele>297.1</ele>
        <time>2012-04-16T13:56:02Z</time>
      </trkpt>
      <trkpt lat="47.27537" lon="6.10285">
        <ele>298.6</ele>
        <time>2012-04-16T13:56:11Z</time>
      </trkpt>
      <trkpt lat="47.27537" lon="6.10285">
        <ele>258.5</ele>
        <time>2012-04-16T13:56:23Z</time>
      </trkpt>
      <trkpt lat="47.27537" lon="6.10285">
        <ele>258.5</ele>
        <time>2012-04-16T13:56:23Z</time>
      </trkpt>
      <trkpt lat="47.27538" lon="6.10266">
        <ele>299.5</ele>
        <time>2012-04-16T13:56:28Z</time>
      </trkpt>
      <trkpt lat="47.27535" lon="6.10255">
        <ele>298.2</ele>
        <time>2012-04-16T13:56:34Z</time>
      </trkpt>
      <trkpt lat="47.27535" lon="6.10255">
        <ele>258.5</ele>
        <time>2012-04-16T13:56:46Z</time>
      </trkpt>
      <trkpt lat="47.27535" lon="6.10255">
        <ele>258.5</ele>
        <time>2012-04-16T13:57:18Z</time>
      </trkpt>
      <trkpt lat="47.27535" lon="6.10255">
        <ele>258.5</ele>
        <time>2012-04-16T13:57:29Z</time>
      </trkpt>
      <trkpt lat="47.27535" lon="6.10255">
        <ele>258.5</ele>
        <time>2012-04-16T14:00:04Z</time>
      </trkpt>
      <trkpt lat="47.27539" lon="6.10233">
        <ele>294.2</ele>
        <time>2012-04-16T14:00:09Z</time>
      </trkpt>
      <trkpt lat="47.27545" lon="6.10221">
        <ele>293.5</ele>
        <time>2012-04-16T14:00:11Z</time>
      </trkpt>
      <trkpt lat="47.27543" lon="6.10212">
        <ele>295.6</ele>
        <time>2012-04-16T14:00:15Z</time>
      </trkpt>
      <trkpt lat="47.27545" lon="6.10203">
        <ele>296.5</ele>
        <time>2012-04-16T14:00:22Z</time>
      </trkpt>
      <trkpt lat="47.27547" lon="6.10191">
        <ele>296.1</ele>
        <time>2012-04-16T14:00:25Z</time>
      </trkpt>
      <trkpt lat="47.27549" lon="6.10181">
        <ele>294.5</ele>
        <time>2012-04-16T14:00:28Z</time>
      </trkpt>
      <trkpt lat="47.27551" lon="6.10171">
        <ele>293.2</ele>
        <time>2012-04-16T14:00:36Z</time>
      </trkpt>
      <trkpt lat="47.27551" lon="6.1016">
        <ele>293.3</ele>
        <time>2012-04-16T14:00:46Z</time>
      </trkpt>
      <trkpt lat="47.27551" lon="6.1016">
        <ele>259.4</ele>
        <time>2012-04-16T14:00:59Z</time>
      </trkpt>
      <trkpt lat="47.27551" lon="6.1016">
        <ele>259.4</ele>
        <time>2012-04-16T14:01:08Z</time>
      </trkpt>
      <trkpt lat="47.27561" lon="6.10139">
        <ele>291.1</ele>
        <time>2012-04-16T14:01:12Z</time>
      </trkpt>
      <trkpt lat="47.27561" lon="6.10139">
        <ele>259.2</ele>
        <time>2012-04-16T14:01:24Z</time>
      </trkpt>
      <trkpt lat="47.27561" lon="6.10139">
        <ele>259.2</ele>
        <time>2012-04-16T14:01:26Z</time>
      </trkpt>
      <trkpt lat="47.27565" lon="6.10111">
        <ele>292</ele>
        <time>2012-04-16T14:01:28Z</time>
      </trkpt>
      <trkpt lat="47.27567" lon="6.10102">
        <ele>291.2</ele>
        <time>2012-04-16T14:01:31Z</time>
      </trkpt>
      <trkpt lat="47.27568" lon="6.10093">
        <ele>291.4</ele>
        <time>2012-04-16T14:01:33Z</time>
      </trkpt>
      <trkpt lat="47.27568" lon="6.10081">
        <ele>291.9</ele>
        <time>2012-04-16T14:01:36Z</time>
      </trkpt>
      <trkpt lat="47.27569" lon="6.10072">
        <ele>292.3</ele>
        <time>2012-04-16T14:01:46Z</time>
      </trkpt>
      <trkpt lat="47.27569" lon="6.10072">
        <ele>259.3</ele>
        <time>2012-04-16T14:01:58Z</time>
      </trkpt>
      <trkpt lat="47.27569" lon="6.10072">
        <ele>259.3</ele>
        <time>2012-04-16T14:02:03Z</time>
      </trkpt>
      <trkpt lat="47.27571" lon="6.10046">
        <ele>291.1</ele>
        <time>2012-04-16T14:02:05Z</time>
      </trkpt>
      <trkpt lat="47.27571" lon="6.10031">
        <ele>291.3</ele>
        <time>2012-04-16T14:02:09Z</time>
      </trkpt>
      <trkpt lat="47.27573" lon="6.10019">
        <ele>292.9</ele>
        <time>2012-04-16T14:02:11Z</time>
      </trkpt>
      <trkpt lat="47.27572" lon="6.10008">
        <ele>293.8</ele>
        <time>2012-04-16T14:02:19Z</time>
      </trkpt>
      <trkpt lat="47.27571" lon="6.09992">
        <ele>292.7</ele>
        <time>2012-04-16T14:02:23Z</time>
      </trkpt>
      <trkpt lat="47.27569" lon="6.09981">
        <ele>293.3</ele>
        <time>2012-04-16T14:02:26Z</time>
      </trkpt>
      <trkpt lat="47.27571" lon="6.09969">
        <ele>294.6</ele>
        <time>2012-04-16T14:02:31Z</time>
      </trkpt>
      <trkpt lat="47.27571" lon="6.09957">
        <ele>295</ele>
        <time>2012-04-16T14:02:36Z</time>
      </trkpt>
      <trkpt lat="47.27571" lon="6.09947">
        <ele>295.2</ele>
        <time>2012-04-16T14:02:46Z</time>
      </trkpt>
      <trkpt lat="47.27571" lon="6.09947">
        <ele>257.6</ele>
        <time>2012-04-16T14:02:57Z</time>
      </trkpt>
      <trkpt lat="47.27571" lon="6.09947">
        <ele>257.6</ele>
        <time>2012-04-16T14:03:03Z</time>
      </trkpt>
      <trkpt lat="47.27577" lon="6.09929">
        <ele>293.5</ele>
        <time>2012-04-16T14:03:04Z</time>
      </trkpt>
      <trkpt lat="47.27578" lon="6.0992">
        <ele>292.9</ele>
        <time>2012-04-16T14:03:10Z</time>
      </trkpt>
      <trkpt lat="47.27576" lon="6.09911">
        <ele>293.3</ele>
        <time>2012-04-16T14:03:17Z</time>
      </trkpt>
      <trkpt lat="47.27572" lon="6.099">
        <ele>294.9</ele>
        <time>2012-04-16T14:03:20Z</time>
      </trkpt>
      <trkpt lat="47.27575" lon="6.09891">
        <ele>293.9</ele>
        <time>2012-04-16T14:03:23Z</time>
      </trkpt>
      <trkpt lat="47.27578" lon="6.09882">
        <ele>293.7</ele>
        <time>2012-04-16T14:03:25Z</time>
      </trkpt>
      <trkpt lat="47.27582" lon="6.09873">
        <ele>294.1</ele>
        <time>2012-04-16T14:03:27Z</time>
      </trkpt>
      <trkpt lat="47.27586" lon="6.09861">
        <ele>296.6</ele>
        <time>2012-04-16T14:03:30Z</time>
      </trkpt>
      <trkpt lat="47.27587" lon="6.0985">
        <ele>296.4</ele>
        <time>2012-04-16T14:03:35Z</time>
      </trkpt>
      <trkpt lat="47.27584" lon="6.09841">
        <ele>298.8</ele>
        <time>2012-04-16T14:03:39Z</time>
      </trkpt>
      <trkpt lat="47.27587" lon="6.09832">
        <ele>298.7</ele>
        <time>2012-04-16T14:03:43Z</time>
      </trkpt>
      <trkpt lat="47.27592" lon="6.09824">
        <ele>299</ele>
        <time>2012-04-16T14:03:48Z</time>
      </trkpt>
      <trkpt lat="47.27597" lon="6.09819">
        <ele>299.4</ele>
        <time>2012-04-16T14:03:57Z</time>
      </trkpt>
      <trkpt lat="47.27598" lon="6.09807">
        <ele>298.2</ele>
        <time>2012-04-16T14:04:04Z</time>
      </trkpt>
      <trkpt lat="47.27599" lon="6.09797">
        <ele>296.8</ele>
        <time>2012-04-16T14:04:11Z</time>
      </trkpt>
      <trkpt lat="47.27599" lon="6.09797">
        <ele>254.6</ele>
        <time>2012-04-16T14:04:23Z</time>
      </trkpt>
      <trkpt lat="47.27599" lon="6.09797">
        <ele>254.6</ele>
        <time>2012-04-16T14:04:31Z</time>
      </trkpt>
      <trkpt lat="47.27606" lon="6.0978">
        <ele>297.2</ele>
        <time>2012-04-16T14:04:37Z</time>
      </trkpt>
      <trkpt lat="47.27614" lon="6.09768">
        <ele>297.7</ele>
        <time>2012-04-16T14:04:45Z</time>
      </trkpt>
      <trkpt lat="47.27617" lon="6.0976">
        <ele>297.2</ele>
        <time>2012-04-16T14:04:47Z</time>
      </trkpt>
      <trkpt lat="47.27617" lon="6.0976">
        <ele>255.2</ele>
        <time>2012-04-16T14:04:59Z</time>
      </trkpt>
      <trkpt lat="47.27617" lon="6.0976">
        <ele>255.2</ele>
        <time>2012-04-16T14:05:00Z</time>
      </trkpt>
      <trkpt lat="47.27629" lon="6.09735">
        <ele>297.2</ele>
        <time>2012-04-16T14:05:05Z</time>
      </trkpt>
      <trkpt lat="47.2763" lon="6.09726">
        <ele>298.7</ele>
        <time>2012-04-16T14:05:09Z</time>
      </trkpt>
      <trkpt lat="47.2763" lon="6.09726">
        <ele>255.7</ele>
        <time>2012-04-16T14:05:22Z</time>
      </trkpt>
      <trkpt lat="47.2763" lon="6.09726">
        <ele>255.7</ele>
        <time>2012-04-16T14:05:30Z</time>
      </trkpt>
      <trkpt lat="47.27634" lon="6.09706">
        <ele>299.5</ele>
        <time>2012-04-16T14:05:31Z</time>
      </trkpt>
      <trkpt lat="47.27635" lon="6.09694">
        <ele>300.5</ele>
        <time>2012-04-16T14:05:34Z</time>
      </trkpt>
      <trkpt lat="47.27638" lon="6.09685">
        <ele>298.7</ele>
        <time>2012-04-16T14:05:37Z</time>
      </trkpt>
      <trkpt lat="47.27638" lon="6.09675">
        <ele>298.7</ele>
        <time>2012-04-16T14:05:41Z</time>
      </trkpt>
      <trkpt lat="47.2764" lon="6.09665">
        <ele>298.1</ele>
        <time>2012-04-16T14:05:46Z</time>
      </trkpt>
      <trkpt lat="47.2764" lon="6.09654">
        <ele>297</ele>
        <time>2012-04-16T14:05:51Z</time>
      </trkpt>
      <trkpt lat="47.27641" lon="6.09644">
        <ele>297.1</ele>
        <time>2012-04-16T14:05:54Z</time>
      </trkpt>
      <trkpt lat="47.27646" lon="6.09636">
        <ele>297.5</ele>
        <time>2012-04-16T14:05:58Z</time>
      </trkpt>
      <trkpt lat="47.27648" lon="6.09626">
        <ele>297.2</ele>
        <time>2012-04-16T14:06:05Z</time>
      </trkpt>
      <trkpt lat="47.27653" lon="6.09616">
        <ele>296.8</ele>
        <time>2012-04-16T14:06:10Z</time>
      </trkpt>
      <trkpt lat="47.27657" lon="6.09608">
        <ele>296.3</ele>
        <time>2012-04-16T14:06:15Z</time>
      </trkpt>
      <trkpt lat="47.27657" lon="6.09598">
        <ele>297.1</ele>
        <time>2012-04-16T14:06:21Z</time>
      </trkpt>
      <trkpt lat="47.27663" lon="6.09593">
        <ele>297.4</ele>
        <time>2012-04-16T14:06:26Z</time>
      </trkpt>
      <trkpt lat="47.27663" lon="6.09582">
        <ele>297.3</ele>
        <time>2012-04-16T14:06:31Z</time>
      </trkpt>
      <trkpt lat="47.27663" lon="6.09582">
        <ele>254</ele>
        <time>2012-04-16T14:06:43Z</time>
      </trkpt>
      <trkpt lat="47.27663" lon="6.09582">
        <ele>254</ele>
        <time>2012-04-16T14:06:53Z</time>
      </trkpt>
      <trkpt lat="47.27679" lon="6.09571">
        <ele>296.2</ele>
        <time>2012-04-16T14:06:55Z</time>
      </trkpt>
      <trkpt lat="47.27686" lon="6.09568">
        <ele>296.2</ele>
        <time>2012-04-16T14:06:58Z</time>
      </trkpt>
      <trkpt lat="47.27693" lon="6.09565">
        <ele>295</ele>
        <time>2012-04-16T14:07:01Z</time>
      </trkpt>
      <trkpt lat="47.27699" lon="6.09558">
        <ele>297.3</ele>
        <time>2012-04-16T14:07:06Z</time>
      </trkpt>
      <trkpt lat="47.27706" lon="6.09552">
        <ele>298.7</ele>
        <time>2012-04-16T14:07:11Z</time>
      </trkpt>
      <trkpt lat="47.27711" lon="6.09546">
        <ele>298.9</ele>
        <time>2012-04-16T14:07:16Z</time>
      </trkpt>
      <trkpt lat="47.27717" lon="6.0954">
        <ele>298.5</ele>
        <time>2012-04-16T14:07:23Z</time>
      </trkpt>
      <trkpt lat="47.27724" lon="6.09541">
        <ele>298.3</ele>
        <time>2012-04-16T14:07:28Z</time>
      </trkpt>
      <trkpt lat="47.2773" lon="6.09545">
        <ele>298.5</ele>
        <time>2012-04-16T14:07:34Z</time>
      </trkpt>
      <trkpt lat="47.27737" lon="6.09549">
        <ele>297.4</ele>
        <time>2012-04-16T14:07:42Z</time>
      </trkpt>
      <trkpt lat="47.27743" lon="6.09549">
        <ele>298.2</ele>
        <time>2012-04-16T14:07:46Z</time>
      </trkpt>
      <trkpt lat="47.27749" lon="6.09556">
        <ele>297.7</ele>
        <time>2012-04-16T14:07:53Z</time>
      </trkpt>
      <trkpt lat="47.27755" lon="6.0956">
        <ele>299.5</ele>
        <time>2012-04-16T14:07:57Z</time>
      </trkpt>
      <trkpt lat="47.27761" lon="6.09564">
        <ele>300.8</ele>
        <time>2012-04-16T14:08:02Z</time>
      </trkpt>
      <trkpt lat="47.27768" lon="6.09572">
        <ele>301.2</ele>
        <time>2012-04-16T14:08:11Z</time>
      </trkpt>
      <trkpt lat="47.27771" lon="6.09581">
        <ele>301</ele>
        <time>2012-04-16T14:08:21Z</time>
      </trkpt>
      <trkpt lat="47.27778" lon="6.0958">
        <ele>302.1</ele>
        <time>2012-04-16T14:08:26Z</time>
      </trkpt>
      <trkpt lat="47.27787" lon="6.09582">
        <ele>300.7</ele>
        <time>2012-04-16T14:08:33Z</time>
      </trkpt>
      <trkpt lat="47.27794" lon="6.09583">
        <ele>300.9</ele>
        <time>2012-04-16T14:08:39Z</time>
      </trkpt>
      <trkpt lat="47.278" lon="6.09584">
        <ele>299.2</ele>
        <time>2012-04-16T14:08:47Z</time>
      </trkpt>
      <trkpt lat="47.27806" lon="6.09581">
        <ele>298.2</ele>
        <time>2012-04-16T14:08:56Z</time>
      </trkpt>
      <trkpt lat="47.27812" lon="6.09576">
        <ele>298.6</ele>
        <time>2012-04-16T14:09:05Z</time>
      </trkpt>
      <trkpt lat="47.27817" lon="6.09568">
        <ele>297.9</ele>
        <time>2012-04-16T14:09:11Z</time>
      </trkpt>
      <trkpt lat="47.27822" lon="6.09562">
        <ele>299.2</ele>
        <time>2012-04-16T14:09:17Z</time>
      </trkpt>
      <trkpt lat="47.27826" lon="6.09555">
        <ele>299.2</ele>
        <time>2012-04-16T14:09:22Z</time>
      </trkpt>
      <trkpt lat="47.27828" lon="6.09546">
        <ele>299.6</ele>
        <time>2012-04-16T14:09:30Z</time>
      </trkpt>
      <trkpt lat="47.2783" lon="6.09536">
        <ele>298.6</ele>
        <time>2012-04-16T14:09:39Z</time>
      </trkpt>
      <trkpt lat="47.27831" lon="6.09525">
        <ele>297.7</ele>
        <time>2012-04-16T14:09:46Z</time>
      </trkpt>
      <trkpt lat="47.27834" lon="6.09516">
        <ele>297.7</ele>
        <time>2012-04-16T14:09:53Z</time>
      </trkpt>
      <trkpt lat="47.27835" lon="6.09505">
        <ele>298.4</ele>
        <time>2012-04-16T14:09:58Z</time>
      </trkpt>
      <trkpt lat="47.27837" lon="6.09496">
        <ele>297.9</ele>
        <time>2012-04-16T14:10:03Z</time>
      </trkpt>
      <trkpt lat="47.27833" lon="6.09487">
        <ele>293.9</ele>
        <time>2012-04-16T14:10:09Z</time>
      </trkpt>
      <trkpt lat="47.27837" lon="6.09476">
        <ele>294.3</ele>
        <time>2012-04-16T14:10:12Z</time>
      </trkpt>
      <trkpt lat="47.27837" lon="6.09465">
        <ele>295.7</ele>
        <time>2012-04-16T14:10:18Z</time>
      </trkpt>
      <trkpt lat="47.27833" lon="6.09456">
        <ele>294.4</ele>
        <time>2012-04-16T14:10:23Z</time>
      </trkpt>
      <trkpt lat="47.27834" lon="6.09446">
        <ele>293.5</ele>
        <time>2012-04-16T14:10:30Z</time>
      </trkpt>
      <trkpt lat="47.2783" lon="6.09437">
        <ele>294.1</ele>
        <time>2012-04-16T14:10:34Z</time>
      </trkpt>
      <trkpt lat="47.27831" lon="6.09427">
        <ele>294.1</ele>
        <time>2012-04-16T14:10:39Z</time>
      </trkpt>
      <trkpt lat="47.2783" lon="6.09417">
        <ele>293.2</ele>
        <time>2012-04-16T14:10:45Z</time>
      </trkpt>
      <trkpt lat="47.27828" lon="6.09406">
        <ele>292.6</ele>
        <time>2012-04-16T14:10:52Z</time>
      </trkpt>
      <trkpt lat="47.27827" lon="6.09396">
        <ele>293.8</ele>
        <time>2012-04-16T14:10:58Z</time>
      </trkpt>
      <trkpt lat="47.27827" lon="6.09386">
        <ele>292.4</ele>
        <time>2012-04-16T14:11:04Z</time>
      </trkpt>
      <trkpt lat="47.27827" lon="6.09377">
        <ele>293.5</ele>
        <time>2012-04-16T14:11:07Z</time>
      </trkpt>
      <trkpt lat="47.27827" lon="6.09377">
        <ele>251.6</ele>
        <time>2012-04-16T14:11:19Z</time>
      </trkpt>
      <trkpt lat="47.27827" lon="6.09377">
        <ele>251.6</ele>
        <time>2012-04-16T14:11:20Z</time>
      </trkpt>
      <trkpt lat="47.27827" lon="6.09358">
        <ele>293.5</ele>
        <time>2012-04-16T14:11:22Z</time>
      </trkpt>
      <trkpt lat="47.27833" lon="6.09349">
        <ele>291.6</ele>
        <time>2012-04-16T14:11:33Z</time>
      </trkpt>
      <trkpt lat="47.27833" lon="6.09349">
        <ele>251</ele>
        <time>2012-04-16T14:11:45Z</time>
      </trkpt>
      <trkpt lat="47.27833" lon="6.09349">
        <ele>251</ele>
        <time>2012-04-16T14:11:46Z</time>
      </trkpt>
      <trkpt lat="47.27835" lon="6.09326">
        <ele>288.7</ele>
        <time>2012-04-16T14:11:49Z</time>
      </trkpt>
      <trkpt lat="47.27837" lon="6.09317">
        <ele>290.4</ele>
        <time>2012-04-16T14:11:53Z</time>
      </trkpt>
      <trkpt lat="47.27838" lon="6.09308">
        <ele>289.4</ele>
        <time>2012-04-16T14:11:57Z</time>
      </trkpt>
      <trkpt lat="47.27841" lon="6.09299">
        <ele>289.2</ele>
        <time>2012-04-16T14:12:01Z</time>
      </trkpt>
      <trkpt lat="47.27842" lon="6.09289">
        <ele>288.5</ele>
        <time>2012-04-16T14:12:06Z</time>
      </trkpt>
      <trkpt lat="47.27846" lon="6.09281">
        <ele>290.6</ele>
        <time>2012-04-16T14:12:12Z</time>
      </trkpt>
      <trkpt lat="47.2785" lon="6.09274">
        <ele>289.5</ele>
        <time>2012-04-16T14:12:18Z</time>
      </trkpt>
      <trkpt lat="47.27854" lon="6.09265">
        <ele>289.2</ele>
        <time>2012-04-16T14:12:21Z</time>
      </trkpt>
      <trkpt lat="47.27857" lon="6.09256">
        <ele>287.9</ele>
        <time>2012-04-16T14:12:28Z</time>
      </trkpt>
      <trkpt lat="47.27862" lon="6.0925">
        <ele>289</ele>
        <time>2012-04-16T14:12:32Z</time>
      </trkpt>
      <trkpt lat="47.27863" lon="6.09241">
        <ele>289.2</ele>
        <time>2012-04-16T14:12:37Z</time>
      </trkpt>
      <trkpt lat="47.27863" lon="6.09241">
        <ele>250</ele>
        <time>2012-04-16T14:12:49Z</time>
      </trkpt>
      <trkpt lat="47.27863" lon="6.09241">
        <ele>250</ele>
        <time>2012-04-16T14:12:58Z</time>
      </trkpt>
      <trkpt lat="47.27868" lon="6.09223">
        <ele>289.2</ele>
        <time>2012-04-16T14:13:00Z</time>
      </trkpt>
      <trkpt lat="47.27872" lon="6.09215">
        <ele>288.6</ele>
        <time>2012-04-16T14:13:03Z</time>
      </trkpt>
      <trkpt lat="47.27872" lon="6.09205">
        <ele>289</ele>
        <time>2012-04-16T14:13:07Z</time>
      </trkpt>
      <trkpt lat="47.27877" lon="6.09198">
        <ele>288.7</ele>
        <time>2012-04-16T14:13:10Z</time>
      </trkpt>
      <trkpt lat="47.27879" lon="6.09187">
        <ele>286.6</ele>
        <time>2012-04-16T14:13:19Z</time>
      </trkpt>
      <trkpt lat="47.27883" lon="6.09177">
        <ele>287.3</ele>
        <time>2012-04-16T14:13:24Z</time>
      </trkpt>
      <trkpt lat="47.27885" lon="6.09168">
        <ele>287.3</ele>
        <time>2012-04-16T14:13:31Z</time>
      </trkpt>
      <trkpt lat="47.27891" lon="6.09162">
        <ele>285.9</ele>
        <time>2012-04-16T14:13:41Z</time>
      </trkpt>
      <trkpt lat="47.27891" lon="6.09162">
        <ele>251</ele>
        <time>2012-04-16T14:13:53Z</time>
      </trkpt>
      <trkpt lat="47.27891" lon="6.09162">
        <ele>251</ele>
        <time>2012-04-16T14:14:09Z</time>
      </trkpt>
      <trkpt lat="47.27903" lon="6.09139">
        <ele>283.8</ele>
        <time>2012-04-16T14:14:10Z</time>
      </trkpt>
      <trkpt lat="47.27907" lon="6.09128">
        <ele>284</ele>
        <time>2012-04-16T14:14:13Z</time>
      </trkpt>
      <trkpt lat="47.2791" lon="6.09118">
        <ele>282.6</ele>
        <time>2012-04-16T14:14:17Z</time>
      </trkpt>
      <trkpt lat="47.27906" lon="6.0911">
        <ele>284.4</ele>
        <time>2012-04-16T14:14:21Z</time>
      </trkpt>
      <trkpt lat="47.27906" lon="6.0911">
        <ele>251</ele>
        <time>2012-04-16T14:14:33Z</time>
      </trkpt>
      <trkpt lat="47.27906" lon="6.0911">
        <ele>251</ele>
        <time>2012-04-16T14:14:45Z</time>
      </trkpt>
      <trkpt lat="47.27913" lon="6.09089">
        <ele>285.6</ele>
        <time>2012-04-16T14:14:47Z</time>
      </trkpt>
      <trkpt lat="47.27915" lon="6.09079">
        <ele>287.3</ele>
        <time>2012-04-16T14:14:50Z</time>
      </trkpt>
      <trkpt lat="47.27921" lon="6.09068">
        <ele>289.5</ele>
        <time>2012-04-16T14:14:54Z</time>
      </trkpt>
      <trkpt lat="47.27921" lon="6.09057">
        <ele>289</ele>
        <time>2012-04-16T14:14:57Z</time>
      </trkpt>
      <trkpt lat="47.2792" lon="6.09047">
        <ele>288.1</ele>
        <time>2012-04-16T14:15:07Z</time>
      </trkpt>
      <trkpt lat="47.27919" lon="6.09037">
        <ele>286.9</ele>
        <time>2012-04-16T14:15:10Z</time>
      </trkpt>
      <trkpt lat="47.2792" lon="6.09027">
        <ele>288.2</ele>
        <time>2012-04-16T14:15:11Z</time>
      </trkpt>
      <trkpt lat="47.27918" lon="6.09018">
        <ele>298.6</ele>
        <time>2012-04-16T14:15:22Z</time>
      </trkpt>
      <trkpt lat="47.27918" lon="6.09018">
        <ele>251</ele>
        <time>2012-04-16T14:15:34Z</time>
      </trkpt>
      <trkpt lat="47.27918" lon="6.09018">
        <ele>251</ele>
        <time>2012-04-16T14:20:02Z</time>
      </trkpt>
      <trkpt lat="47.27926" lon="6.08999">
        <ele>295.2</ele>
        <time>2012-04-16T14:20:05Z</time>
      </trkpt>
      <trkpt lat="47.2793" lon="6.08991">
        <ele>295.4</ele>
        <time>2012-04-16T14:20:11Z</time>
      </trkpt>
      <trkpt lat="47.27933" lon="6.0898">
        <ele>292.5</ele>
        <time>2012-04-16T14:20:20Z</time>
      </trkpt>
      <trkpt lat="47.27935" lon="6.0897">
        <ele>291.8</ele>
        <time>2012-04-16T14:20:24Z</time>
      </trkpt>
      <trkpt lat="47.27936" lon="6.08959">
        <ele>292.2</ele>
        <time>2012-04-16T14:20:32Z</time>
      </trkpt>
      <trkpt lat="47.27936" lon="6.08959">
        <ele>251</ele>
        <time>2012-04-16T14:20:44Z</time>
      </trkpt>
      <trkpt lat="47.27936" lon="6.08959">
        <ele>251</ele>
        <time>2012-04-16T14:21:11Z</time>
      </trkpt>
      <trkpt lat="47.27942" lon="6.08941">
        <ele>291.1</ele>
        <time>2012-04-16T14:21:13Z</time>
      </trkpt>
      <trkpt lat="47.27942" lon="6.08931">
        <ele>291.5</ele>
        <time>2012-04-16T14:21:15Z</time>
      </trkpt>
      <trkpt lat="47.27944" lon="6.08921">
        <ele>290.5</ele>
        <time>2012-04-16T14:21:26Z</time>
      </trkpt>
      <trkpt lat="47.27944" lon="6.08921">
        <ele>251</ele>
        <time>2012-04-16T14:21:38Z</time>
      </trkpt>
      <trkpt lat="47.27944" lon="6.08921">
        <ele>251</ele>
        <time>2012-04-16T14:21:39Z</time>
      </trkpt>
      <trkpt lat="47.27957" lon="6.08902">
        <ele>290.8</ele>
        <time>2012-04-16T14:21:39Z</time>
      </trkpt>
      <trkpt lat="47.27962" lon="6.08893">
        <ele>291.6</ele>
        <time>2012-04-16T14:21:42Z</time>
      </trkpt>
      <trkpt lat="47.27968" lon="6.08887">
        <ele>292.4</ele>
        <time>2012-04-16T14:21:46Z</time>
      </trkpt>
      <trkpt lat="47.27974" lon="6.08881">
        <ele>291.9</ele>
        <time>2012-04-16T14:21:52Z</time>
      </trkpt>
      <trkpt lat="47.2798" lon="6.08882">
        <ele>293.5</ele>
        <time>2012-04-16T14:21:57Z</time>
      </trkpt>
      <trkpt lat="47.27986" lon="6.08887">
        <ele>292.6</ele>
        <time>2012-04-16T14:22:02Z</time>
      </trkpt>
      <trkpt lat="47.27992" lon="6.08891">
        <ele>293.8</ele>
        <time>2012-04-16T14:22:10Z</time>
      </trkpt>
      <trkpt lat="47.27997" lon="6.08897">
        <ele>293.1</ele>
        <time>2012-04-16T14:22:18Z</time>
      </trkpt>
      <trkpt lat="47.28002" lon="6.08903">
        <ele>292.9</ele>
        <time>2012-04-16T14:22:24Z</time>
      </trkpt>
      <trkpt lat="47.28002" lon="6.08903">
        <ele>251</ele>
        <time>2012-04-16T14:22:36Z</time>
      </trkpt>
      <trkpt lat="47.28002" lon="6.08903">
        <ele>251</ele>
        <time>2012-04-16T14:23:25Z</time>
      </trkpt>
      <trkpt lat="47.28018" lon="6.08914">
        <ele>293.8</ele>
        <time>2012-04-16T14:23:28Z</time>
      </trkpt>
      <trkpt lat="47.28024" lon="6.08915">
        <ele>295.8</ele>
        <time>2012-04-16T14:23:31Z</time>
      </trkpt>
      <trkpt lat="47.28032" lon="6.08918">
        <ele>296.1</ele>
        <time>2012-04-16T14:23:35Z</time>
      </trkpt>
      <trkpt lat="47.28039" lon="6.0892">
        <ele>295.5</ele>
        <time>2012-04-16T14:23:39Z</time>
      </trkpt>
      <trkpt lat="47.28047" lon="6.08922">
        <ele>297.4</ele>
        <time>2012-04-16T14:23:44Z</time>
      </trkpt>
      <trkpt lat="47.28053" lon="6.08926">
        <ele>297.1</ele>
        <time>2012-04-16T14:23:48Z</time>
      </trkpt>
      <trkpt lat="47.2806" lon="6.08929">
        <ele>298</ele>
        <time>2012-04-16T14:23:55Z</time>
      </trkpt>
      <trkpt lat="47.28068" lon="6.08933">
        <ele>297.8</ele>
        <time>2012-04-16T14:24:03Z</time>
      </trkpt>
      <trkpt lat="47.28075" lon="6.08934">
        <ele>296</ele>
        <time>2012-04-16T14:24:08Z</time>
      </trkpt>
      <trkpt lat="47.28081" lon="6.08939">
        <ele>296.3</ele>
        <time>2012-04-16T14:24:14Z</time>
      </trkpt>
      <trkpt lat="47.28081" lon="6.08939">
        <ele>252</ele>
        <time>2012-04-16T14:24:26Z</time>
      </trkpt>
      <trkpt lat="47.28081" lon="6.08939">
        <ele>252</ele>
        <time>2012-04-16T14:24:47Z</time>
      </trkpt>
      <trkpt lat="47.28089" lon="6.08954">
        <ele>297.1</ele>
        <time>2012-04-16T14:24:55Z</time>
      </trkpt>
      <trkpt lat="47.28095" lon="6.08958">
        <ele>298.2</ele>
        <time>2012-04-16T14:25:01Z</time>
      </trkpt>
      <trkpt lat="47.28101" lon="6.08957">
        <ele>298.7</ele>
        <time>2012-04-16T14:25:05Z</time>
      </trkpt>
      <trkpt lat="47.28109" lon="6.08958">
        <ele>297.4</ele>
        <time>2012-04-16T14:25:12Z</time>
      </trkpt>
      <trkpt lat="47.28115" lon="6.08956">
        <ele>296.9</ele>
        <time>2012-04-16T14:25:20Z</time>
      </trkpt>
      <trkpt lat="47.28123" lon="6.08956">
        <ele>296.9</ele>
        <time>2012-04-16T14:25:28Z</time>
      </trkpt>
      <trkpt lat="47.2813" lon="6.08955">
        <ele>297.3</ele>
        <time>2012-04-16T14:25:33Z</time>
      </trkpt>
      <trkpt lat="47.28136" lon="6.08953">
        <ele>297.7</ele>
        <time>2012-04-16T14:25:39Z</time>
      </trkpt>
      <trkpt lat="47.28141" lon="6.08946">
        <ele>296.4</ele>
        <time>2012-04-16T14:25:48Z</time>
      </trkpt>
      <trkpt lat="47.28141" lon="6.08946">
        <ele>253.1</ele>
        <time>2012-04-16T14:26:00Z</time>
      </trkpt>
      <trkpt lat="47.28141" lon="6.08946">
        <ele>253.1</ele>
        <time>2012-04-16T14:26:49Z</time>
      </trkpt>
      <trkpt lat="47.28141" lon="6.08946">
        <ele>253.1</ele>
        <time>2012-04-16T14:27:00Z</time>
      </trkpt>
      <trkpt lat="47.28141" lon="6.08946">
        <ele>253.1</ele>
        <time>2012-04-16T14:29:03Z</time>
      </trkpt>
      <trkpt lat="47.28141" lon="6.08946">
        <ele>253.1</ele>
        <time>2012-04-16T14:29:15Z</time>
      </trkpt>
      <trkpt lat="47.28141" lon="6.08946">
        <ele>253.1</ele>
        <time>2012-04-16T14:29:23Z</time>
      </trkpt>
      <trkpt lat="47.28169" lon="6.08942">
        <ele>294.4</ele>
        <time>2012-04-16T14:29:28Z</time>
      </trkpt>
      <trkpt lat="47.28175" lon="6.0894">
        <ele>293.4</ele>
        <time>2012-04-16T14:29:33Z</time>
      </trkpt>
      <trkpt lat="47.28183" lon="6.08939">
        <ele>295</ele>
        <time>2012-04-16T14:29:40Z</time>
      </trkpt>
      <trkpt lat="47.2819" lon="6.0894">
        <ele>297.5</ele>
        <time>2012-04-16T14:29:47Z</time>
      </trkpt>
      <trkpt lat="47.28196" lon="6.0894">
        <ele>298.2</ele>
        <time>2012-04-16T14:29:52Z</time>
      </trkpt>
      <trkpt lat="47.28203" lon="6.08937">
        <ele>297.5</ele>
        <time>2012-04-16T14:30:00Z</time>
      </trkpt>
      <trkpt lat="47.28209" lon="6.08936">
        <ele>296.5</ele>
        <time>2012-04-16T14:30:06Z</time>
      </trkpt>
      <trkpt lat="47.28209" lon="6.08936">
        <ele>256.9</ele>
        <time>2012-04-16T14:30:18Z</time>
      </trkpt>
      <trkpt lat="47.28209" lon="6.08936">
        <ele>256.9</ele>
        <time>2012-04-16T14:31:49Z</time>
      </trkpt>
      <trkpt lat="47.28216" lon="6.08917">
        <ele>297.2</ele>
        <time>2012-04-16T14:31:52Z</time>
      </trkpt>
      <trkpt lat="47.28219" lon="6.08907">
        <ele>296.5</ele>
        <time>2012-04-16T14:31:59Z</time>
      </trkpt>
      <trkpt lat="47.28223" lon="6.08899">
        <ele>297.1</ele>
        <time>2012-04-16T14:32:06Z</time>
      </trkpt>
      <trkpt lat="47.28223" lon="6.08899">
        <ele>258.1</ele>
        <time>2012-04-16T14:32:18Z</time>
      </trkpt>
      <trkpt lat="47.28223" lon="6.08899">
        <ele>258.1</ele>
        <time>2012-04-16T14:32:19Z</time>
      </trkpt>
      <trkpt lat="47.28221" lon="6.08878">
        <ele>300.6</ele>
        <time>2012-04-16T14:32:23Z</time>
      </trkpt>
      <trkpt lat="47.28221" lon="6.08868">
        <ele>301.8</ele>
        <time>2012-04-16T14:32:27Z</time>
      </trkpt>
      <trkpt lat="47.28224" lon="6.08858">
        <ele>300.2</ele>
        <time>2012-04-16T14:32:33Z</time>
      </trkpt>
      <trkpt lat="47.28226" lon="6.08847">
        <ele>299.8</ele>
        <time>2012-04-16T14:32:39Z</time>
      </trkpt>
      <trkpt lat="47.28225" lon="6.08836">
        <ele>300.7</ele>
        <time>2012-04-16T14:32:48Z</time>
      </trkpt>
      <trkpt lat="47.28226" lon="6.08826">
        <ele>301.1</ele>
        <time>2012-04-16T14:32:53Z</time>
      </trkpt>
      <trkpt lat="47.28226" lon="6.08816">
        <ele>300.3</ele>
        <time>2012-04-16T14:32:59Z</time>
      </trkpt>
      <trkpt lat="47.28229" lon="6.08809">
        <ele>300.6</ele>
        <time>2012-04-16T14:33:04Z</time>
      </trkpt>
      <trkpt lat="47.28227" lon="6.08798">
        <ele>298.9</ele>
        <time>2012-04-16T14:33:12Z</time>
      </trkpt>
      <trkpt lat="47.28226" lon="6.08789">
        <ele>299.7</ele>
        <time>2012-04-16T14:33:17Z</time>
      </trkpt>
      <trkpt lat="47.28227" lon="6.08779">
        <ele>298.1</ele>
        <time>2012-04-16T14:33:22Z</time>
      </trkpt>
      <trkpt lat="47.28229" lon="6.08768">
        <ele>298.8</ele>
        <time>2012-04-16T14:33:29Z</time>
      </trkpt>
      <trkpt lat="47.28228" lon="6.08758">
        <ele>299.1</ele>
        <time>2012-04-16T14:33:35Z</time>
      </trkpt>
      <trkpt lat="47.28226" lon="6.08748">
        <ele>298.6</ele>
        <time>2012-04-16T14:33:42Z</time>
      </trkpt>
      <trkpt lat="47.2823" lon="6.08739">
        <ele>298</ele>
        <time>2012-04-16T14:33:48Z</time>
      </trkpt>
      <trkpt lat="47.28227" lon="6.0873">
        <ele>298.4</ele>
        <time>2012-04-16T14:33:54Z</time>
      </trkpt>
      <trkpt lat="47.28227" lon="6.08721">
        <ele>296.4</ele>
        <time>2012-04-16T14:34:00Z</time>
      </trkpt>
      <trkpt lat="47.28225" lon="6.08712">
        <ele>295.6</ele>
        <time>2012-04-16T14:34:06Z</time>
      </trkpt>
      <trkpt lat="47.28227" lon="6.08702">
        <ele>297.7</ele>
        <time>2012-04-16T14:34:13Z</time>
      </trkpt>
      <trkpt lat="47.28225" lon="6.08692">
        <ele>297.6</ele>
        <time>2012-04-16T14:34:19Z</time>
      </trkpt>
      <trkpt lat="47.28226" lon="6.08683">
        <ele>297.3</ele>
        <time>2012-04-16T14:34:26Z</time>
      </trkpt>
      <trkpt lat="47.28224" lon="6.08674">
        <ele>297.5</ele>
        <time>2012-04-16T14:34:33Z</time>
      </trkpt>
      <trkpt lat="47.28223" lon="6.08662">
        <ele>297.3</ele>
        <time>2012-04-16T14:34:40Z</time>
      </trkpt>
      <trkpt lat="47.28226" lon="6.08653">
        <ele>297.7</ele>
        <time>2012-04-16T14:34:46Z</time>
      </trkpt>
      <trkpt lat="47.28227" lon="6.08644">
        <ele>297.3</ele>
        <time>2012-04-16T14:34:51Z</time>
      </trkpt>
      <trkpt lat="47.28229" lon="6.08634">
        <ele>297.3</ele>
        <time>2012-04-16T14:34:58Z</time>
      </trkpt>
      <trkpt lat="47.28229" lon="6.08624">
        <ele>298.5</ele>
        <time>2012-04-16T14:35:03Z</time>
      </trkpt>
      <trkpt lat="47.28228" lon="6.08615">
        <ele>298.2</ele>
        <time>2012-04-16T14:35:07Z</time>
      </trkpt>
      <trkpt lat="47.2823" lon="6.08604">
        <ele>297.8</ele>
        <time>2012-04-16T14:35:14Z</time>
      </trkpt>
      <trkpt lat="47.28233" lon="6.08595">
        <ele>297.7</ele>
        <time>2012-04-16T14:35:19Z</time>
      </trkpt>
      <trkpt lat="47.28229" lon="6.08587">
        <ele>297.4</ele>
        <time>2012-04-16T14:35:24Z</time>
      </trkpt>
      <trkpt lat="47.28226" lon="6.08577">
        <ele>296.2</ele>
        <time>2012-04-16T14:35:30Z</time>
      </trkpt>
      <trkpt lat="47.28225" lon="6.08567">
        <ele>296.9</ele>
        <time>2012-04-16T14:35:36Z</time>
      </trkpt>
      <trkpt lat="47.28228" lon="6.08558">
        <ele>295.2</ele>
        <time>2012-04-16T14:35:42Z</time>
      </trkpt>
      <trkpt lat="47.28228" lon="6.08548">
        <ele>295.2</ele>
        <time>2012-04-16T14:35:48Z</time>
      </trkpt>
      <trkpt lat="47.28226" lon="6.08539">
        <ele>296.8</ele>
        <time>2012-04-16T14:35:56Z</time>
      </trkpt>
      <trkpt lat="47.28226" lon="6.08539">
        <ele>259.4</ele>
        <time>2012-04-16T14:36:08Z</time>
      </trkpt>
      <trkpt lat="47.28226" lon="6.08539">
        <ele>259.4</ele>
        <time>2012-04-16T14:36:10Z</time>
      </trkpt>
      <trkpt lat="47.28229" lon="6.0852">
        <ele>299.1</ele>
        <time>2012-04-16T14:36:18Z</time>
      </trkpt>
      <trkpt lat="47.28228" lon="6.08511">
        <ele>297.7</ele>
        <time>2012-04-16T14:36:26Z</time>
      </trkpt>
      <trkpt lat="47.28231" lon="6.08502">
        <ele>298.6</ele>
        <time>2012-04-16T14:36:31Z</time>
      </trkpt>
      <trkpt lat="47.2823" lon="6.08491">
        <ele>298.4</ele>
        <time>2012-04-16T14:36:36Z</time>
      </trkpt>
      <trkpt lat="47.28232" lon="6.08482">
        <ele>299.5</ele>
        <time>2012-04-16T14:36:45Z</time>
      </trkpt>
      <trkpt lat="47.28231" lon="6.08472">
        <ele>299.2</ele>
        <time>2012-04-16T14:36:50Z</time>
      </trkpt>
      <trkpt lat="47.28227" lon="6.08463">
        <ele>298</ele>
        <time>2012-04-16T14:36:55Z</time>
      </trkpt>
      <trkpt lat="47.28228" lon="6.08453">
        <ele>299</ele>
        <time>2012-04-16T14:37:00Z</time>
      </trkpt>
      <trkpt lat="47.2823" lon="6.08444">
        <ele>299.4</ele>
        <time>2012-04-16T14:37:06Z</time>
      </trkpt>
      <trkpt lat="47.28229" lon="6.08434">
        <ele>301.2</ele>
        <time>2012-04-16T14:37:12Z</time>
      </trkpt>
      <trkpt lat="47.2823" lon="6.08424">
        <ele>302.3</ele>
        <time>2012-04-16T14:37:20Z</time>
      </trkpt>
      <trkpt lat="47.28231" lon="6.08415">
        <ele>301.3</ele>
        <time>2012-04-16T14:37:26Z</time>
      </trkpt>
      <trkpt lat="47.28228" lon="6.08405">
        <ele>299.7</ele>
        <time>2012-04-16T14:37:32Z</time>
      </trkpt>
      <trkpt lat="47.28228" lon="6.08396">
        <ele>298.8</ele>
        <time>2012-04-16T14:37:38Z</time>
      </trkpt>
      <trkpt lat="47.28231" lon="6.08387">
        <ele>298.8</ele>
        <time>2012-04-16T14:37:44Z</time>
      </trkpt>
      <trkpt lat="47.28232" lon="6.08378">
        <ele>298.5</ele>
        <time>2012-04-16T14:37:50Z</time>
      </trkpt>
      <trkpt lat="47.28233" lon="6.08367">
        <ele>297.8</ele>
        <time>2012-04-16T14:37:57Z</time>
      </trkpt>
      <trkpt lat="47.28232" lon="6.08356">
        <ele>297.2</ele>
        <time>2012-04-16T14:38:03Z</time>
      </trkpt>
      <trkpt lat="47.28232" lon="6.08356">
        <ele>260.4</ele>
        <time>2012-04-16T14:38:15Z</time>
      </trkpt>
      <trkpt lat="47.28232" lon="6.08356">
        <ele>260.4</ele>
        <time>2012-04-16T14:38:26Z</time>
      </trkpt>
      <trkpt lat="47.28232" lon="6.08356">
        <ele>260.4</ele>
        <time>2012-04-16T14:38:38Z</time>
      </trkpt>
      <trkpt lat="47.28232" lon="6.08356">
        <ele>260.4</ele>
        <time>2012-04-16T14:38:48Z</time>
      </trkpt>
      <trkpt lat="47.2825" lon="6.08343">
        <ele>302.3</ele>
        <time>2012-04-16T14:38:54Z</time>
      </trkpt>
      <trkpt lat="47.28258" lon="6.08339">
        <ele>303.7</ele>
        <time>2012-04-16T14:38:59Z</time>
      </trkpt>
      <trkpt lat="47.28264" lon="6.0834">
        <ele>304.3</ele>
        <time>2012-04-16T14:39:04Z</time>
      </trkpt>
      <trkpt lat="47.2827" lon="6.08337">
        <ele>305.4</ele>
        <time>2012-04-16T14:39:08Z</time>
      </trkpt>
      <trkpt lat="47.2827" lon="6.08337">
        <ele>263.5</ele>
        <time>2012-04-16T14:39:20Z</time>
      </trkpt>
      <trkpt lat="47.2827" lon="6.08337">
        <ele>263.5</ele>
        <time>2012-04-16T14:39:21Z</time>
      </trkpt>
      <trkpt lat="47.28282" lon="6.08328">
        <ele>303.7</ele>
        <time>2012-04-16T14:39:26Z</time>
      </trkpt>
      <trkpt lat="47.28288" lon="6.08323">
        <ele>306.5</ele>
        <time>2012-04-16T14:39:31Z</time>
      </trkpt>
      <trkpt lat="47.28294" lon="6.08317">
        <ele>306.9</ele>
        <time>2012-04-16T14:39:38Z</time>
      </trkpt>
      <trkpt lat="47.28301" lon="6.08314">
        <ele>308.1</ele>
        <time>2012-04-16T14:39:44Z</time>
      </trkpt>
      <trkpt lat="47.28307" lon="6.08311">
        <ele>309.4</ele>
        <time>2012-04-16T14:39:53Z</time>
      </trkpt>
      <trkpt lat="47.28312" lon="6.08303">
        <ele>311.4</ele>
        <time>2012-04-16T14:40:00Z</time>
      </trkpt>
      <trkpt lat="47.28318" lon="6.08299">
        <ele>311.7</ele>
        <time>2012-04-16T14:40:09Z</time>
      </trkpt>
      <trkpt lat="47.28325" lon="6.08294">
        <ele>311.9</ele>
        <time>2012-04-16T14:40:16Z</time>
      </trkpt>
      <trkpt lat="47.2833" lon="6.08287">
        <ele>313.1</ele>
        <time>2012-04-16T14:40:25Z</time>
      </trkpt>
      <trkpt lat="47.2833" lon="6.08287">
        <ele>271.3</ele>
        <time>2012-04-16T14:40:37Z</time>
      </trkpt>
      <trkpt lat="47.2833" lon="6.08287">
        <ele>271.3</ele>
        <time>2012-04-16T14:40:38Z</time>
      </trkpt>
      <trkpt lat="47.28344" lon="6.08282">
        <ele>317.4</ele>
        <time>2012-04-16T14:40:48Z</time>
      </trkpt>
      <trkpt lat="47.28349" lon="6.08277">
        <ele>317.1</ele>
        <time>2012-04-16T14:40:55Z</time>
      </trkpt>
      <trkpt lat="47.28355" lon="6.0827">
        <ele>317.1</ele>
        <time>2012-04-16T14:41:03Z</time>
      </trkpt>
      <trkpt lat="47.28358" lon="6.0826">
        <ele>316.8</ele>
        <time>2012-04-16T14:41:12Z</time>
      </trkpt>
      <trkpt lat="47.28364" lon="6.08255">
        <ele>318.6</ele>
        <time>2012-04-16T14:41:21Z</time>
      </trkpt>
      <trkpt lat="47.28369" lon="6.08248">
        <ele>319.4</ele>
        <time>2012-04-16T14:41:29Z</time>
      </trkpt>
      <trkpt lat="47.28374" lon="6.08242">
        <ele>319.2</ele>
        <time>2012-04-16T14:41:34Z</time>
      </trkpt>
      <trkpt lat="47.2838" lon="6.08235">
        <ele>319.2</ele>
        <time>2012-04-16T14:41:45Z</time>
      </trkpt>
      <trkpt lat="47.28386" lon="6.08231">
        <ele>318.9</ele>
        <time>2012-04-16T14:41:54Z</time>
      </trkpt>
      <trkpt lat="47.28391" lon="6.08224">
        <ele>318.4</ele>
        <time>2012-04-16T14:42:00Z</time>
      </trkpt>
      <trkpt lat="47.28391" lon="6.08224">
        <ele>275.2</ele>
        <time>2012-04-16T14:42:12Z</time>
      </trkpt>
      <trkpt lat="47.28391" lon="6.08224">
        <ele>275.2</ele>
        <time>2012-04-16T14:42:17Z</time>
      </trkpt>
      <trkpt lat="47.28405" lon="6.08217">
        <ele>313.3</ele>
        <time>2012-04-16T14:42:22Z</time>
      </trkpt>
      <trkpt lat="47.28409" lon="6.0821">
        <ele>312.1</ele>
        <time>2012-04-16T14:42:28Z</time>
      </trkpt>
      <trkpt lat="47.28415" lon="6.08204">
        <ele>312</ele>
        <time>2012-04-16T14:42:34Z</time>
      </trkpt>
      <trkpt lat="47.28418" lon="6.08194">
        <ele>314.1</ele>
        <time>2012-04-16T14:42:41Z</time>
      </trkpt>
      <trkpt lat="47.28422" lon="6.08185">
        <ele>314.4</ele>
        <time>2012-04-16T14:42:48Z</time>
      </trkpt>
      <trkpt lat="47.28427" lon="6.08177">
        <ele>315.3</ele>
        <time>2012-04-16T14:42:53Z</time>
      </trkpt>
      <trkpt lat="47.28431" lon="6.08169">
        <ele>315.3</ele>
        <time>2012-04-16T14:43:02Z</time>
      </trkpt>
      <trkpt lat="47.28435" lon="6.08161">
        <ele>315.3</ele>
        <time>2012-04-16T14:43:11Z</time>
      </trkpt>
      <trkpt lat="47.28432" lon="6.08153">
        <ele>314.7</ele>
        <time>2012-04-16T14:43:18Z</time>
      </trkpt>
      <trkpt lat="47.28426" lon="6.08148">
        <ele>315.7</ele>
        <time>2012-04-16T14:43:21Z</time>
      </trkpt>
      <trkpt lat="47.28431" lon="6.08142">
        <ele>318.6</ele>
        <time>2012-04-16T14:43:25Z</time>
      </trkpt>
      <trkpt lat="47.28431" lon="6.08142">
        <ele>272.3</ele>
        <time>2012-04-16T14:43:37Z</time>
      </trkpt>
      <trkpt lat="47.28431" lon="6.08142">
        <ele>272.3</ele>
        <time>2012-04-16T14:43:42Z</time>
      </trkpt>
      <trkpt lat="47.28422" lon="6.08128">
        <ele>327.4</ele>
        <time>2012-04-16T14:43:50Z</time>
      </trkpt>
      <trkpt lat="47.28422" lon="6.08128">
        <ele>271.4</ele>
        <time>2012-04-16T14:44:02Z</time>
      </trkpt>
      <trkpt lat="47.28422" lon="6.08128">
        <ele>271.4</ele>
        <time>2012-04-16T14:44:28Z</time>
      </trkpt>
      <trkpt lat="47.28411" lon="6.08118">
        <ele>324.3</ele>
        <time>2012-04-16T14:44:34Z</time>
      </trkpt>
      <trkpt lat="47.28411" lon="6.08118">
        <ele>270.2</ele>
        <time>2012-04-16T14:44:46Z</time>
      </trkpt>
      <trkpt lat="47.28411" lon="6.08118">
        <ele>270.2</ele>
        <time>2012-04-16T14:46:56Z</time>
      </trkpt>
      <trkpt lat="47.28411" lon="6.08118">
        <ele>270.2</ele>
        <time>2012-04-16T14:47:08Z</time>
      </trkpt>
      <trkpt lat="47.28411" lon="6.08118">
        <ele>270.2</ele>
        <time>2012-04-16T14:51:31Z</time>
      </trkpt>
    </trkseg>
  </trk>
</gpx>